DLH4732 VIDP-EDDF
Flight info
| Callsign | DLH4732 |
|---|---|
| Flight time | 8h 4m |
| Altitude | 36000 |
| Route | OROTI7C OROTI A589 ASARI A466 DI N644 LEMOD A909 RODAR N644 LEYLA/N0487F380 N644 TETRO M10 SARPI UM10 GOKPA UL746 ODERO DCT OPT DCT TEGRI DCT ARSIN DCT SUBEN DCT AKINI T161 DEBHI DEBHI1C |
| Aircraft | A346/H-SDE2E3FGHIJ3J4J5M1RWXY/LB1D1 |
Departure
| Time | 2026-04-07 11:28 |
|---|---|
| Airport | Indira Gandhi International Airport (VIDP) |
Arrival
| Time | 2026-04-07 19:33 |
|---|---|
| Airport | Frankfurt Main Airport (EDDF) |
| Time | Latitude | Longitude | Altitude | Speed | Heading |
|---|---|---|---|---|---|
| 2026-04-07 10:54 | 28.55409 | 77.08076 | 759 ft | 0 kts | 327° |
| 2026-04-07 11:20 | 28.55401 | 77.08081 | 763 ft | 4 kts | 322° |
| 2026-04-07 11:20 | 28.55386 | 77.08100 | 754 ft | 4 kts | 297° |
| 2026-04-07 11:21 | 28.55381 | 77.08120 | 755 ft | 4 kts | 259° |
| 2026-04-07 11:21 | 28.55390 | 77.08142 | 754 ft | 4 kts | 237° |
| 2026-04-07 11:21 | 28.55402 | 77.08164 | 756 ft | 1 kts | 239° |
| 2026-04-07 11:24 | 28.55400 | 77.08160 | 755 ft | 2 kts | 239° |
| 2026-04-07 11:24 | 28.55381 | 77.08124 | 758 ft | 9 kts | 238° |
| 2026-04-07 11:25 | 28.55260 | 77.07881 | 755 ft | 26 kts | 255° |
| 2026-04-07 11:25 | 28.55229 | 77.07767 | 754 ft | 14 kts | 218° |
| 2026-04-07 11:25 | 28.55136 | 77.07722 | 755 ft | 15 kts | 195° |
| 2026-04-07 11:26 | 28.55076 | 77.07650 | 756 ft | 12 kts | 245° |
| 2026-04-07 11:26 | 28.55036 | 77.07601 | 757 ft | 0 kts | 211° |
| 2026-04-07 11:26 | 28.55026 | 77.07595 | 755 ft | 5 kts | 203° |
| 2026-04-07 11:27 | 28.54994 | 77.07582 | 755 ft | 3 kts | 197° |
| 2026-04-07 11:27 | 28.54895 | 77.07566 | 758 ft | 19 kts | 158° |
| 2026-04-07 11:27 | 28.54831 | 77.07673 | 757 ft | 14 kts | 105° |
| 2026-04-07 11:27 | 28.54770 | 77.07955 | 757 ft | 64 kts | 103° |
| 2026-04-07 11:28 | 28.54623 | 77.08650 | 758 ft | 115 kts | 104° |
| 2026-04-07 11:28 | 28.54398 | 77.09703 | 754 ft | 157 kts | 103° |
| 2026-04-07 11:28 | 28.54099 | 77.11028 | 915 ft | 176 kts | 105° |
| 2026-04-07 11:28 | 28.53787 | 77.12236 | 1826 ft | 148 kts | 107° |
| 2026-04-07 11:29 | 28.53358 | 77.13338 | 2011 ft | 178 kts | 136° |
| 2026-04-07 11:29 | 28.52304 | 77.14349 | 2207 ft | 211 kts | 155° |
| 2026-04-07 11:29 | 28.50811 | 77.14553 | 2845 ft | 230 kts | 192° |
| 2026-04-07 11:29 | 28.49239 | 77.13953 | 3542 ft | 248 kts | 198° |
| 2026-04-07 11:30 | 28.47562 | 77.13282 | 4342 ft | 261 kts | 195° |
| 2026-04-07 11:30 | 28.45826 | 77.12697 | 5299 ft | 259 kts | 193° |
| 2026-04-07 11:30 | 28.44072 | 77.12195 | 6112 ft | 261 kts | 192° |
| 2026-04-07 11:30 | 28.42368 | 77.11465 | 6819 ft | 266 kts | 216° |
| 2026-04-07 11:31 | 28.41231 | 77.09824 | 7537 ft | 271 kts | 246° |
| 2026-04-07 11:31 | 28.40899 | 77.07706 | 8323 ft | 277 kts | 271° |
| 2026-04-07 11:31 | 28.41415 | 77.05577 | 9097 ft | 286 kts | 296° |
| 2026-04-07 11:31 | 28.42498 | 77.03669 | 9933 ft | 287 kts | 299° |
| 2026-04-07 11:32 | 28.43650 | 77.01779 | 10482 ft | 296 kts | 301° |
| 2026-04-07 11:32 | 28.44891 | 76.99828 | 10819 ft | 313 kts | 302° |
| 2026-04-07 11:32 | 28.46208 | 76.97768 | 11119 ft | 330 kts | 302° |
| 2026-04-07 11:32 | 28.47590 | 76.95603 | 11399 ft | 346 kts | 302° |
| 2026-04-07 11:33 | 28.49017 | 76.93365 | 11670 ft | 361 kts | 302° |
| 2026-04-07 11:33 | 28.50516 | 76.91007 | 11986 ft | 375 kts | 302° |
| 2026-04-07 11:33 | 28.52057 | 76.88582 | 12563 ft | 380 kts | 302° |
| 2026-04-07 11:33 | 28.53606 | 76.86143 | 13347 ft | 381 kts | 302° |
| 2026-04-07 11:34 | 28.55164 | 76.83687 | 14011 ft | 383 kts | 302° |
| 2026-04-07 11:34 | 28.56729 | 76.81215 | 14603 ft | 386 kts | 302° |
| 2026-04-07 11:34 | 28.58306 | 76.78721 | 15195 ft | 389 kts | 302° |
| 2026-04-07 11:34 | 28.59892 | 76.76210 | 15842 ft | 392 kts | 302° |
| 2026-04-07 11:35 | 28.61486 | 76.73683 | 16439 ft | 395 kts | 302° |
| 2026-04-07 11:35 | 28.63096 | 76.71129 | 17046 ft | 398 kts | 302° |
| 2026-04-07 11:35 | 28.64695 | 76.68591 | 17650 ft | 401 kts | 302° |
| 2026-04-07 11:35 | 28.66329 | 76.65996 | 18230 ft | 404 kts | 302° |
| 2026-04-07 11:36 | 28.67976 | 76.63378 | 18735 ft | 408 kts | 302° |
| 2026-04-07 11:36 | 28.69635 | 76.60740 | 19240 ft | 411 kts | 302° |
| 2026-04-07 11:36 | 28.71307 | 76.58081 | 19737 ft | 414 kts | 302° |
| 2026-04-07 11:36 | 28.72993 | 76.55396 | 20251 ft | 417 kts | 302° |
| 2026-04-07 11:37 | 28.74689 | 76.52694 | 20743 ft | 420 kts | 302° |
| 2026-04-07 11:37 | 28.76397 | 76.49970 | 21232 ft | 424 kts | 302° |
| 2026-04-07 11:37 | 28.78120 | 76.47222 | 21715 ft | 427 kts | 302° |
| 2026-04-07 11:37 | 28.79852 | 76.44456 | 22183 ft | 430 kts | 302° |
| 2026-04-07 11:38 | 28.81601 | 76.41664 | 22668 ft | 433 kts | 302° |
| 2026-04-07 11:38 | 28.83336 | 76.38889 | 23132 ft | 437 kts | 302° |
| 2026-04-07 11:38 | 28.85109 | 76.36052 | 23549 ft | 440 kts | 302° |
| 2026-04-07 11:38 | 28.86891 | 76.33200 | 23925 ft | 443 kts | 302° |
| 2026-04-07 11:39 | 28.88681 | 76.30331 | 24313 ft | 444 kts | 302° |
| 2026-04-07 11:39 | 28.90483 | 76.27442 | 24706 ft | 447 kts | 302° |
| 2026-04-07 11:39 | 28.92290 | 76.24545 | 25129 ft | 449 kts | 302° |
| 2026-04-07 11:39 | 28.94104 | 76.21633 | 25526 ft | 451 kts | 302° |
| 2026-04-07 11:40 | 28.95926 | 76.18705 | 25920 ft | 453 kts | 303° |
| 2026-04-07 11:40 | 28.97731 | 76.15805 | 26310 ft | 455 kts | 303° |
| 2026-04-07 11:40 | 28.99570 | 76.12846 | 26706 ft | 457 kts | 303° |
| 2026-04-07 11:40 | 29.01416 | 76.09876 | 27111 ft | 459 kts | 303° |
| 2026-04-07 11:41 | 29.03267 | 76.06895 | 27499 ft | 461 kts | 303° |
| 2026-04-07 11:41 | 29.05125 | 76.03900 | 27892 ft | 462 kts | 303° |
| 2026-04-07 11:41 | 29.06987 | 76.00897 | 28294 ft | 464 kts | 303° |
| 2026-04-07 11:41 | 29.08852 | 75.97888 | 28843 ft | 461 kts | 303° |
| 2026-04-07 11:42 | 29.10700 | 75.94902 | 29488 ft | 458 kts | 303° |
| 2026-04-07 11:42 | 29.12538 | 75.91932 | 30083 ft | 454 kts | 303° |
| 2026-04-07 11:42 | 29.14331 | 75.89035 | 30620 ft | 450 kts | 302° |
| 2026-04-07 11:42 | 29.16128 | 75.86131 | 31241 ft | 443 kts | 302° |
| 2026-04-07 11:43 | 29.17895 | 75.83274 | 31948 ft | 435 kts | 302° |
| 2026-04-07 11:43 | 29.19628 | 75.80469 | 32656 ft | 427 kts | 301° |
| 2026-04-07 11:43 | 29.21329 | 75.77713 | 33342 ft | 420 kts | 301° |
| 2026-04-07 11:43 | 29.22997 | 75.75007 | 33948 ft | 413 kts | 301° |
| 2026-04-07 11:44 | 29.24640 | 75.72333 | 34363 ft | 409 kts | 301° |
| 2026-04-07 11:44 | 29.26278 | 75.69665 | 34594 ft | 409 kts | 301° |
| 2026-04-07 11:44 | 29.27896 | 75.67026 | 34752 ft | 411 kts | 301° |
| 2026-04-07 11:44 | 29.29543 | 75.64340 | 34924 ft | 412 kts | 301° |
| 2026-04-07 11:45 | 29.31191 | 75.61652 | 35133 ft | 412 kts | 301° |
| 2026-04-07 11:45 | 29.32843 | 75.58958 | 35316 ft | 412 kts | 301° |
| 2026-04-07 11:45 | 29.34492 | 75.56267 | 35498 ft | 413 kts | 301° |
| 2026-04-07 11:45 | 29.36143 | 75.53572 | 35663 ft | 413 kts | 301° |
| 2026-04-07 11:46 | 29.37797 | 75.50871 | 35785 ft | 414 kts | 301° |
| 2026-04-07 11:46 | 29.39455 | 75.48161 | 35787 ft | 414 kts | 301° |
| 2026-04-07 11:46 | 29.42769 | 75.42741 | 35792 ft | 415 kts | 301° |
| 2026-04-07 11:47 | 29.46059 | 75.37352 | 35781 ft | 415 kts | 301° |
| 2026-04-07 11:47 | 29.49380 | 75.31906 | 35790 ft | 416 kts | 301° |
| 2026-04-07 11:48 | 29.52702 | 75.26451 | 35787 ft | 417 kts | 301° |
| 2026-04-07 11:48 | 29.56002 | 75.21024 | 35788 ft | 417 kts | 301° |
| 2026-04-07 11:49 | 29.59330 | 75.15545 | 35788 ft | 418 kts | 301° |
| 2026-04-07 11:49 | 29.62664 | 75.10049 | 35779 ft | 419 kts | 301° |
| 2026-04-07 11:50 | 29.66005 | 75.04533 | 35784 ft | 420 kts | 301° |
| 2026-04-07 11:50 | 29.69355 | 74.98994 | 35786 ft | 422 kts | 301° |
| 2026-04-07 11:51 | 29.72683 | 74.93486 | 35774 ft | 422 kts | 301° |
| 2026-04-07 11:51 | 29.76040 | 74.87923 | 35786 ft | 423 kts | 301° |
| 2026-04-07 11:52 | 29.79396 | 74.82352 | 35783 ft | 423 kts | 301° |
| 2026-04-07 11:52 | 29.82757 | 74.76767 | 35786 ft | 424 kts | 301° |
| 2026-04-07 11:53 | 29.86115 | 74.71179 | 35789 ft | 424 kts | 301° |
| 2026-04-07 11:53 | 29.89446 | 74.65626 | 35787 ft | 424 kts | 301° |
| 2026-04-07 11:54 | 29.92800 | 74.60029 | 35791 ft | 424 kts | 301° |
| 2026-04-07 11:54 | 29.96156 | 74.54420 | 35788 ft | 424 kts | 301° |
| 2026-04-07 11:55 | 29.99510 | 74.48807 | 35787 ft | 425 kts | 301° |
| 2026-04-07 11:55 | 30.02841 | 74.43224 | 35789 ft | 425 kts | 301° |
| 2026-04-07 11:56 | 30.06196 | 74.37593 | 35792 ft | 425 kts | 301° |
| 2026-04-07 11:56 | 30.09554 | 74.31950 | 35791 ft | 426 kts | 301° |
| 2026-04-07 11:57 | 30.12915 | 74.26295 | 35791 ft | 427 kts | 301° |
| 2026-04-07 11:57 | 30.16277 | 74.20629 | 35791 ft | 427 kts | 301° |
| 2026-04-07 11:58 | 30.19616 | 74.14995 | 35795 ft | 428 kts | 301° |
| 2026-04-07 11:58 | 30.22981 | 74.09307 | 35789 ft | 428 kts | 301° |
| 2026-04-07 11:59 | 30.26348 | 74.03609 | 35789 ft | 429 kts | 301° |
| 2026-04-07 11:59 | 30.29693 | 73.97940 | 35791 ft | 429 kts | 301° |
| 2026-04-07 12:00 | 30.33059 | 73.92229 | 35789 ft | 429 kts | 301° |
| 2026-04-07 12:00 | 30.36424 | 73.86509 | 35788 ft | 429 kts | 301° |
| 2026-04-07 12:01 | 30.39788 | 73.80784 | 35785 ft | 430 kts | 301° |
| 2026-04-07 12:01 | 30.43152 | 73.75051 | 35783 ft | 430 kts | 301° |
| 2026-04-07 12:02 | 30.46494 | 73.69346 | 35787 ft | 430 kts | 301° |
| 2026-04-07 12:02 | 30.49856 | 73.63598 | 35783 ft | 430 kts | 301° |
| 2026-04-07 12:03 | 30.53213 | 73.57851 | 35782 ft | 430 kts | 301° |
| 2026-04-07 12:03 | 30.56547 | 73.52135 | 35785 ft | 430 kts | 301° |
| 2026-04-07 12:04 | 30.59902 | 73.46373 | 35783 ft | 431 kts | 301° |
| 2026-04-07 12:04 | 30.63260 | 73.40599 | 35781 ft | 431 kts | 300° |
| 2026-04-07 12:05 | 30.66623 | 73.34809 | 35785 ft | 432 kts | 300° |
| 2026-04-07 12:05 | 30.69984 | 73.29013 | 35786 ft | 432 kts | 300° |
| 2026-04-07 12:06 | 30.73323 | 73.23247 | 35776 ft | 433 kts | 300° |
| 2026-04-07 12:06 | 30.76694 | 73.17417 | 35784 ft | 434 kts | 300° |
| 2026-04-07 12:07 | 30.80060 | 73.11587 | 35784 ft | 434 kts | 300° |
| 2026-04-07 12:07 | 30.83431 | 73.05742 | 35786 ft | 435 kts | 300° |
| 2026-04-07 12:08 | 30.86798 | 72.99895 | 35786 ft | 435 kts | 300° |
| 2026-04-07 12:08 | 30.90143 | 72.94074 | 35785 ft | 435 kts | 300° |
| 2026-04-07 12:09 | 30.93510 | 72.88209 | 35783 ft | 435 kts | 300° |
| 2026-04-07 12:09 | 30.96875 | 72.82338 | 35784 ft | 435 kts | 300° |
| 2026-04-07 12:10 | 31.00238 | 72.76462 | 35785 ft | 435 kts | 300° |
| 2026-04-07 12:10 | 31.03577 | 72.70617 | 35785 ft | 435 kts | 300° |
| 2026-04-07 12:11 | 31.06937 | 72.64727 | 35783 ft | 436 kts | 300° |
| 2026-04-07 12:11 | 31.10295 | 72.58832 | 35785 ft | 436 kts | 300° |
| 2026-04-07 12:12 | 31.13657 | 72.52921 | 35786 ft | 436 kts | 300° |
| 2026-04-07 12:12 | 31.17015 | 72.47007 | 35784 ft | 437 kts | 300° |
| 2026-04-07 12:13 | 31.20354 | 72.41115 | 35783 ft | 438 kts | 300° |
| 2026-04-07 12:13 | 31.23718 | 72.35172 | 35789 ft | 438 kts | 300° |
| 2026-04-07 12:14 | 31.26996 | 72.29159 | 35778 ft | 437 kts | 297° |
| 2026-04-07 12:14 | 31.29938 | 72.22935 | 35783 ft | 437 kts | 296° |
| 2026-04-07 12:15 | 31.32826 | 72.16722 | 35784 ft | 437 kts | 296° |
| 2026-04-07 12:15 | 31.35729 | 72.10464 | 35777 ft | 437 kts | 296° |
| 2026-04-07 12:16 | 31.38627 | 72.04201 | 35779 ft | 437 kts | 296° |
| 2026-04-07 12:16 | 31.41526 | 71.97928 | 35780 ft | 437 kts | 296° |
| 2026-04-07 12:17 | 31.44422 | 71.91652 | 35775 ft | 437 kts | 296° |
| 2026-04-07 12:17 | 31.47293 | 71.85417 | 35782 ft | 437 kts | 296° |
| 2026-04-07 12:18 | 31.50181 | 71.79137 | 35781 ft | 437 kts | 296° |
| 2026-04-07 12:18 | 31.53062 | 71.72857 | 35781 ft | 437 kts | 296° |
| 2026-04-07 12:19 | 31.55942 | 71.66569 | 35781 ft | 437 kts | 296° |
| 2026-04-07 12:19 | 31.58800 | 71.60320 | 35783 ft | 437 kts | 296° |
| 2026-04-07 12:20 | 31.61679 | 71.54019 | 35783 ft | 437 kts | 296° |
| 2026-04-07 12:20 | 31.64552 | 71.47718 | 35781 ft | 438 kts | 296° |
| 2026-04-07 12:21 | 31.67423 | 71.41405 | 35788 ft | 438 kts | 296° |
| 2026-04-07 12:21 | 31.70295 | 71.35077 | 35784 ft | 438 kts | 296° |
| 2026-04-07 12:22 | 31.73141 | 71.28797 | 35783 ft | 438 kts | 296° |
| 2026-04-07 12:22 | 31.76005 | 71.22466 | 35783 ft | 438 kts | 296° |
| 2026-04-07 12:23 | 31.78862 | 71.16137 | 35783 ft | 438 kts | 296° |
| 2026-04-07 12:23 | 31.81720 | 71.09799 | 35783 ft | 438 kts | 295° |
| 2026-04-07 12:24 | 31.84549 | 71.03507 | 35781 ft | 438 kts | 295° |
| 2026-04-07 12:24 | 31.87399 | 70.97160 | 35778 ft | 438 kts | 295° |
| 2026-04-07 12:25 | 31.90337 | 70.90869 | 35782 ft | 439 kts | 298° |
| 2026-04-07 12:25 | 31.93735 | 70.84862 | 35787 ft | 441 kts | 303° |
| 2026-04-07 12:26 | 31.97466 | 70.79108 | 35789 ft | 442 kts | 304° |
| 2026-04-07 12:26 | 32.01203 | 70.73399 | 35787 ft | 443 kts | 304° |
| 2026-04-07 12:27 | 32.04968 | 70.67644 | 35787 ft | 443 kts | 304° |
| 2026-04-07 12:27 | 32.08732 | 70.61882 | 35790 ft | 443 kts | 304° |
| 2026-04-07 12:28 | 32.12498 | 70.56108 | 35781 ft | 444 kts | 304° |
| 2026-04-07 12:29 | 32.18116 | 70.47479 | 35783 ft | 444 kts | 304° |
| 2026-04-07 12:29 | 32.21874 | 70.41694 | 35786 ft | 443 kts | 304° |
| 2026-04-07 12:30 | 32.25632 | 70.35901 | 35786 ft | 444 kts | 304° |
| 2026-04-07 12:30 | 32.29386 | 70.30104 | 35789 ft | 444 kts | 304° |
| 2026-04-07 12:31 | 32.33115 | 70.24337 | 35794 ft | 444 kts | 304° |
| 2026-04-07 12:31 | 32.36869 | 70.18521 | 35796 ft | 445 kts | 304° |
| 2026-04-07 12:32 | 32.40701 | 70.12750 | 35800 ft | 446 kts | 305° |
| 2026-04-07 12:32 | 32.44559 | 70.06997 | 35806 ft | 446 kts | 305° |
| 2026-04-07 12:33 | 32.48409 | 70.01236 | 35800 ft | 446 kts | 305° |
| 2026-04-07 12:33 | 32.52233 | 69.95496 | 35801 ft | 447 kts | 305° |
| 2026-04-07 12:34 | 32.56079 | 69.89709 | 35810 ft | 447 kts | 305° |
| 2026-04-07 12:34 | 32.59926 | 69.83904 | 35802 ft | 447 kts | 305° |
| 2026-04-07 12:35 | 32.63764 | 69.78106 | 35801 ft | 446 kts | 305° |
| 2026-04-07 12:35 | 32.67599 | 69.72304 | 35809 ft | 447 kts | 305° |
| 2026-04-07 12:36 | 32.71411 | 69.66530 | 35806 ft | 447 kts | 305° |
| 2026-04-07 12:36 | 32.75249 | 69.60708 | 35810 ft | 448 kts | 305° |
| 2026-04-07 12:37 | 32.79091 | 69.54871 | 35809 ft | 448 kts | 305° |
| 2026-04-07 12:37 | 32.82933 | 69.49025 | 35813 ft | 448 kts | 305° |
| 2026-04-07 12:38 | 32.86750 | 69.43209 | 35811 ft | 448 kts | 305° |
| 2026-04-07 12:38 | 32.90578 | 69.37349 | 35810 ft | 449 kts | 304° |
| 2026-04-07 12:39 | 32.94406 | 69.31473 | 35814 ft | 448 kts | 305° |
| 2026-04-07 12:39 | 32.98222 | 69.25607 | 35811 ft | 448 kts | 304° |
| 2026-04-07 12:40 | 33.02011 | 69.19772 | 35817 ft | 448 kts | 304° |
| 2026-04-07 12:40 | 33.05826 | 69.13888 | 35818 ft | 448 kts | 304° |
| 2026-04-07 12:41 | 33.09640 | 69.07997 | 35817 ft | 448 kts | 304° |
| 2026-04-07 12:41 | 33.13450 | 69.02103 | 35820 ft | 448 kts | 304° |
| 2026-04-07 12:42 | 33.17258 | 68.96202 | 35816 ft | 448 kts | 304° |
| 2026-04-07 12:42 | 33.21047 | 68.90320 | 35817 ft | 449 kts | 304° |
| 2026-04-07 12:43 | 33.24849 | 68.84407 | 35812 ft | 449 kts | 304° |
| 2026-04-07 12:43 | 33.28730 | 68.78537 | 35814 ft | 450 kts | 307° |
| 2026-04-07 12:44 | 33.32806 | 68.72839 | 35810 ft | 450 kts | 307° |
| 2026-04-07 12:44 | 33.36864 | 68.67185 | 35809 ft | 450 kts | 307° |
| 2026-04-07 12:45 | 33.40943 | 68.61487 | 35814 ft | 450 kts | 307° |
| 2026-04-07 12:45 | 33.45015 | 68.55786 | 35813 ft | 450 kts | 307° |
| 2026-04-07 12:46 | 33.49087 | 68.50077 | 35813 ft | 450 kts | 307° |
| 2026-04-07 12:46 | 33.53154 | 68.44364 | 35815 ft | 451 kts | 307° |
| 2026-04-07 12:47 | 33.57191 | 68.38603 | 35816 ft | 451 kts | 306° |
| 2026-04-07 12:47 | 33.61158 | 68.32774 | 35820 ft | 451 kts | 306° |
| 2026-04-07 12:48 | 33.65099 | 68.26977 | 35820 ft | 451 kts | 306° |
| 2026-04-07 12:48 | 33.69072 | 68.21133 | 35827 ft | 451 kts | 306° |
| 2026-04-07 12:49 | 33.73043 | 68.15288 | 35841 ft | 451 kts | 306° |
| 2026-04-07 12:49 | 33.77011 | 68.09440 | 35833 ft | 452 kts | 306° |
| 2026-04-07 12:50 | 33.80982 | 68.03575 | 35830 ft | 452 kts | 306° |
| 2026-04-07 12:50 | 33.84281 | 67.98698 | 35847 ft | 452 kts | 306° |
| 2026-04-07 12:51 | 33.88898 | 67.91859 | 35855 ft | 452 kts | 306° |
| 2026-04-07 12:51 | 33.92222 | 67.86927 | 35855 ft | 452 kts | 306° |
| 2026-04-07 12:52 | 33.96160 | 67.81075 | 35858 ft | 452 kts | 306° |
| 2026-04-07 12:52 | 34.00113 | 67.75163 | 35858 ft | 453 kts | 306° |
| 2026-04-07 12:53 | 34.04040 | 67.69220 | 35861 ft | 452 kts | 306° |
| 2026-04-07 12:53 | 34.07963 | 67.63271 | 35863 ft | 453 kts | 306° |
| 2026-04-07 12:54 | 34.11882 | 67.57320 | 35868 ft | 452 kts | 306° |
| 2026-04-07 12:54 | 34.15773 | 67.51403 | 35868 ft | 453 kts | 306° |
| 2026-04-07 12:55 | 34.19691 | 67.45439 | 35873 ft | 453 kts | 306° |
| 2026-04-07 12:55 | 34.23610 | 67.39461 | 35866 ft | 453 kts | 306° |
| 2026-04-07 12:56 | 34.27526 | 67.33477 | 35872 ft | 454 kts | 306° |
| 2026-04-07 12:56 | 34.31447 | 67.27477 | 35869 ft | 454 kts | 306° |
| 2026-04-07 12:57 | 34.35335 | 67.21519 | 35871 ft | 454 kts | 306° |
| 2026-04-07 12:57 | 34.39247 | 67.15510 | 35877 ft | 454 kts | 306° |
| 2026-04-07 12:58 | 34.43157 | 67.09496 | 35881 ft | 454 kts | 306° |
| 2026-04-07 12:58 | 34.47073 | 67.03464 | 35883 ft | 455 kts | 305° |
| 2026-04-07 12:59 | 34.50980 | 66.97430 | 35887 ft | 455 kts | 306° |
| 2026-04-07 12:59 | 34.54893 | 66.91381 | 35890 ft | 455 kts | 305° |
| 2026-04-07 13:00 | 34.58769 | 66.85372 | 35896 ft | 455 kts | 305° |
| 2026-04-07 13:00 | 34.62679 | 66.79298 | 35905 ft | 455 kts | 305° |
| 2026-04-07 13:01 | 34.66576 | 66.73233 | 35903 ft | 455 kts | 305° |
| 2026-04-07 13:01 | 34.70476 | 66.67155 | 35903 ft | 455 kts | 305° |
| 2026-04-07 13:02 | 34.74344 | 66.61114 | 35914 ft | 455 kts | 305° |
| 2026-04-07 13:02 | 34.78236 | 66.55025 | 35906 ft | 455 kts | 305° |
| 2026-04-07 13:03 | 34.82123 | 66.48934 | 35925 ft | 455 kts | 305° |
| 2026-04-07 13:03 | 34.86012 | 66.42829 | 35930 ft | 456 kts | 305° |
| 2026-04-07 13:04 | 34.89898 | 66.36717 | 35925 ft | 456 kts | 305° |
| 2026-04-07 13:04 | 34.93754 | 66.30642 | 35939 ft | 456 kts | 305° |
| 2026-04-07 13:05 | 34.97636 | 66.24510 | 35942 ft | 456 kts | 305° |
| 2026-04-07 13:05 | 35.01496 | 66.18348 | 35948 ft | 456 kts | 305° |
| 2026-04-07 13:06 | 35.05346 | 66.12181 | 35958 ft | 456 kts | 305° |
| 2026-04-07 13:06 | 35.08185 | 66.07627 | 35960 ft | 456 kts | 305° |
| 2026-04-07 13:07 | 35.12006 | 66.01492 | 35973 ft | 456 kts | 305° |
| 2026-04-07 13:07 | 35.15846 | 65.95315 | 35978 ft | 457 kts | 305° |
| 2026-04-07 13:08 | 35.19695 | 65.89113 | 35983 ft | 457 kts | 304° |
| 2026-04-07 13:08 | 35.23531 | 65.82922 | 35986 ft | 456 kts | 304° |
| 2026-04-07 13:09 | 35.27353 | 65.76741 | 35993 ft | 456 kts | 304° |
| 2026-04-07 13:09 | 35.31195 | 65.70518 | 36001 ft | 456 kts | 304° |
| 2026-04-07 13:10 | 35.35021 | 65.64310 | 36007 ft | 456 kts | 304° |
| 2026-04-07 13:10 | 35.38847 | 65.58090 | 36011 ft | 456 kts | 304° |
| 2026-04-07 13:11 | 35.42671 | 65.51863 | 36017 ft | 457 kts | 304° |
| 2026-04-07 13:11 | 35.46464 | 65.45675 | 36016 ft | 457 kts | 304° |
| 2026-04-07 13:12 | 35.50279 | 65.39440 | 36023 ft | 456 kts | 304° |
| 2026-04-07 13:12 | 35.54090 | 65.33200 | 36023 ft | 456 kts | 304° |
| 2026-04-07 13:13 | 35.57902 | 65.26948 | 36027 ft | 456 kts | 304° |
| 2026-04-07 13:13 | 35.61679 | 65.20743 | 36026 ft | 456 kts | 304° |
| 2026-04-07 13:14 | 35.65479 | 65.14487 | 36026 ft | 456 kts | 304° |
| 2026-04-07 13:14 | 35.69277 | 65.08223 | 36021 ft | 456 kts | 304° |
| 2026-04-07 13:15 | 35.73066 | 65.01964 | 36021 ft | 455 kts | 304° |
| 2026-04-07 13:15 | 35.76851 | 64.95700 | 36017 ft | 455 kts | 304° |
| 2026-04-07 13:16 | 35.80632 | 64.89432 | 36013 ft | 455 kts | 304° |
| 2026-04-07 13:16 | 35.84380 | 64.83205 | 36015 ft | 455 kts | 304° |
| 2026-04-07 13:17 | 35.88150 | 64.76933 | 36008 ft | 455 kts | 304° |
| 2026-04-07 13:17 | 35.91919 | 64.70648 | 36006 ft | 455 kts | 304° |
| 2026-04-07 13:18 | 35.95679 | 64.64370 | 36003 ft | 454 kts | 304° |
| 2026-04-07 13:18 | 35.99408 | 64.58131 | 35998 ft | 454 kts | 304° |
| 2026-04-07 13:19 | 36.03160 | 64.51842 | 35992 ft | 454 kts | 304° |
| 2026-04-07 13:19 | 36.06900 | 64.45560 | 35995 ft | 453 kts | 304° |
| 2026-04-07 13:20 | 36.10638 | 64.39271 | 35995 ft | 453 kts | 304° |
| 2026-04-07 13:20 | 36.14372 | 64.32974 | 35995 ft | 453 kts | 304° |
| 2026-04-07 13:21 | 36.18103 | 64.26745 | 35994 ft | 453 kts | 305° |
| 2026-04-07 13:21 | 36.21981 | 64.20582 | 35991 ft | 453 kts | 306° |
| 2026-04-07 13:22 | 36.25857 | 64.14425 | 35997 ft | 453 kts | 306° |
| 2026-04-07 13:22 | 36.29722 | 64.08257 | 36002 ft | 452 kts | 306° |
| 2026-04-07 13:23 | 36.33578 | 64.02082 | 35998 ft | 452 kts | 305° |
| 2026-04-07 13:23 | 36.37400 | 63.95947 | 36003 ft | 452 kts | 305° |
| 2026-04-07 13:24 | 36.41249 | 63.89757 | 36006 ft | 452 kts | 305° |
| 2026-04-07 13:24 | 36.45084 | 63.83576 | 36002 ft | 451 kts | 305° |
| 2026-04-07 13:25 | 36.48919 | 63.77385 | 36007 ft | 451 kts | 305° |
| 2026-04-07 13:25 | 36.52724 | 63.71230 | 36007 ft | 451 kts | 305° |
| 2026-04-07 13:26 | 36.56549 | 63.65032 | 36007 ft | 451 kts | 305° |
| 2026-04-07 13:26 | 36.60368 | 63.58831 | 36010 ft | 450 kts | 305° |
| 2026-04-07 13:27 | 36.64178 | 63.52635 | 36015 ft | 450 kts | 305° |
| 2026-04-07 13:27 | 36.67987 | 63.46429 | 35999 ft | 450 kts | 305° |
| 2026-04-07 13:28 | 36.71763 | 63.40264 | 36005 ft | 450 kts | 305° |
| 2026-04-07 13:28 | 36.75569 | 63.34041 | 36005 ft | 450 kts | 305° |
| 2026-04-07 13:29 | 36.79366 | 63.27820 | 36012 ft | 450 kts | 304° |
| 2026-04-07 13:29 | 36.83158 | 63.21597 | 36009 ft | 450 kts | 304° |
| 2026-04-07 13:30 | 36.86925 | 63.15401 | 36011 ft | 450 kts | 304° |
| 2026-04-07 13:30 | 36.90717 | 63.09154 | 36012 ft | 451 kts | 304° |
| 2026-04-07 13:31 | 36.94503 | 63.02905 | 36011 ft | 450 kts | 304° |
| 2026-04-07 13:31 | 36.98284 | 62.96653 | 36012 ft | 450 kts | 304° |
| 2026-04-07 13:32 | 37.02039 | 62.90432 | 36013 ft | 450 kts | 304° |
| 2026-04-07 13:32 | 37.05817 | 62.84162 | 36013 ft | 451 kts | 304° |
| 2026-04-07 13:33 | 37.09596 | 62.77877 | 36014 ft | 452 kts | 304° |
| 2026-04-07 13:33 | 37.15242 | 62.68466 | 36012 ft | 452 kts | 304° |
| 2026-04-07 13:34 | 37.19020 | 62.62156 | 36012 ft | 452 kts | 304° |
| 2026-04-07 13:34 | 37.22794 | 62.55838 | 36010 ft | 452 kts | 304° |
| 2026-04-07 13:35 | 37.26575 | 62.49498 | 36005 ft | 453 kts | 304° |
| 2026-04-07 13:35 | 37.30326 | 62.43195 | 35999 ft | 453 kts | 304° |
| 2026-04-07 13:36 | 37.34101 | 62.36840 | 36004 ft | 453 kts | 304° |
| 2026-04-07 13:36 | 37.37876 | 62.30472 | 35999 ft | 454 kts | 304° |
| 2026-04-07 13:37 | 37.41647 | 62.24099 | 35999 ft | 454 kts | 304° |
| 2026-04-07 13:37 | 37.45419 | 62.17713 | 35998 ft | 454 kts | 304° |
| 2026-04-07 13:38 | 37.49163 | 62.11360 | 35993 ft | 454 kts | 304° |
| 2026-04-07 13:38 | 37.52932 | 62.04954 | 35993 ft | 455 kts | 304° |
| 2026-04-07 13:39 | 37.56698 | 61.98539 | 35993 ft | 455 kts | 304° |
| 2026-04-07 13:39 | 37.60390 | 61.92125 | 35995 ft | 455 kts | 302° |
| 2026-04-07 13:40 | 37.63679 | 61.85312 | 35993 ft | 453 kts | 297° |
| 2026-04-07 13:40 | 37.66562 | 61.78230 | 35992 ft | 453 kts | 295° |
| 2026-04-07 13:41 | 37.69401 | 61.71121 | 35991 ft | 453 kts | 295° |
| 2026-04-07 13:41 | 37.72234 | 61.64007 | 35995 ft | 453 kts | 295° |
| 2026-04-07 13:42 | 37.75047 | 61.56933 | 35991 ft | 453 kts | 295° |
| 2026-04-07 13:42 | 37.77870 | 61.49814 | 35993 ft | 453 kts | 295° |
| 2026-04-07 13:43 | 37.80694 | 61.42680 | 35991 ft | 453 kts | 295° |
| 2026-04-07 13:43 | 37.83512 | 61.35543 | 35988 ft | 453 kts | 295° |
| 2026-04-07 13:44 | 37.86306 | 61.28453 | 35987 ft | 452 kts | 295° |
| 2026-04-07 13:44 | 37.89112 | 61.21316 | 35988 ft | 452 kts | 295° |
| 2026-04-07 13:45 | 37.91911 | 61.14177 | 35985 ft | 452 kts | 295° |
| 2026-04-07 13:45 | 37.94707 | 61.07032 | 35986 ft | 452 kts | 295° |
| 2026-04-07 13:46 | 37.97499 | 60.99880 | 35985 ft | 452 kts | 295° |
| 2026-04-07 13:46 | 38.00264 | 60.92779 | 35985 ft | 452 kts | 295° |
| 2026-04-07 13:47 | 38.03048 | 60.85617 | 35980 ft | 452 kts | 295° |
| 2026-04-07 13:47 | 38.05819 | 60.78468 | 35982 ft | 451 kts | 295° |
| 2026-04-07 13:48 | 38.08586 | 60.71314 | 35980 ft | 451 kts | 295° |
| 2026-04-07 13:48 | 38.11329 | 60.64206 | 35978 ft | 450 kts | 295° |
| 2026-04-07 13:49 | 38.14085 | 60.57048 | 35981 ft | 450 kts | 295° |
| 2026-04-07 13:49 | 38.16836 | 60.49884 | 35979 ft | 451 kts | 295° |
| 2026-04-07 13:50 | 38.19583 | 60.42716 | 35977 ft | 450 kts | 295° |
| 2026-04-07 13:50 | 38.22305 | 60.35595 | 35975 ft | 450 kts | 295° |
| 2026-04-07 13:51 | 38.25041 | 60.28423 | 35974 ft | 450 kts | 294° |
| 2026-04-07 13:51 | 38.27775 | 60.21238 | 35976 ft | 450 kts | 294° |
| 2026-04-07 13:52 | 38.30484 | 60.14101 | 35971 ft | 450 kts | 294° |
| 2026-04-07 13:52 | 38.33208 | 60.06907 | 35972 ft | 450 kts | 294° |
| 2026-04-07 13:53 | 38.35925 | 59.99716 | 35969 ft | 450 kts | 294° |
| 2026-04-07 13:53 | 38.38638 | 59.92520 | 35967 ft | 450 kts | 294° |
| 2026-04-07 13:54 | 38.41343 | 59.85327 | 35966 ft | 449 kts | 294° |
| 2026-04-07 13:54 | 38.44025 | 59.78178 | 35966 ft | 449 kts | 294° |
| 2026-04-07 13:55 | 38.46718 | 59.70982 | 35966 ft | 449 kts | 294° |
| 2026-04-07 13:55 | 38.49403 | 59.63791 | 35963 ft | 448 kts | 294° |
| 2026-04-07 13:56 | 38.52085 | 59.56590 | 35947 ft | 448 kts | 294° |
| 2026-04-07 13:56 | 38.54760 | 59.49390 | 35952 ft | 448 kts | 294° |
| 2026-04-07 13:57 | 38.57410 | 59.42239 | 35953 ft | 447 kts | 294° |
| 2026-04-07 13:57 | 38.60083 | 59.35051 | 35952 ft | 447 kts | 295° |
| 2026-04-07 13:58 | 38.62912 | 59.27956 | 35946 ft | 447 kts | 296° |
| 2026-04-07 13:58 | 38.65736 | 59.20918 | 35953 ft | 447 kts | 295° |
| 2026-04-07 13:59 | 38.68569 | 59.13809 | 35946 ft | 447 kts | 295° |
| 2026-04-07 13:59 | 38.71385 | 59.06708 | 35942 ft | 447 kts | 295° |
| 2026-04-07 14:00 | 38.74198 | 58.99594 | 35937 ft | 447 kts | 295° |
| 2026-04-07 14:00 | 38.77002 | 58.92485 | 35937 ft | 447 kts | 295° |
| 2026-04-07 14:01 | 38.79785 | 58.85410 | 35936 ft | 447 kts | 295° |
| 2026-04-07 14:01 | 38.82583 | 58.78283 | 35933 ft | 447 kts | 295° |
| 2026-04-07 14:02 | 38.85374 | 58.71154 | 35937 ft | 446 kts | 295° |
| 2026-04-07 14:02 | 38.88095 | 58.63984 | 35929 ft | 446 kts | 292° |
| 2026-04-07 14:03 | 38.90332 | 58.56618 | 35934 ft | 445 kts | 288° |
| 2026-04-07 14:03 | 38.92391 | 58.49113 | 35935 ft | 445 kts | 288° |
| 2026-04-07 14:04 | 38.94440 | 58.41591 | 35931 ft | 445 kts | 288° |
| 2026-04-07 14:04 | 38.96483 | 58.34070 | 35935 ft | 445 kts | 288° |
| 2026-04-07 14:05 | 38.97981 | 58.28540 | 35935 ft | 445 kts | 288° |
| 2026-04-07 14:05 | 39.00000 | 58.21069 | 35934 ft | 445 kts | 288° |
| 2026-04-07 14:06 | 39.02033 | 58.13527 | 35934 ft | 445 kts | 288° |
| 2026-04-07 14:06 | 39.04057 | 58.05993 | 35936 ft | 445 kts | 288° |
| 2026-04-07 14:07 | 39.06064 | 57.98501 | 35934 ft | 445 kts | 288° |
| 2026-04-07 14:07 | 39.08079 | 57.90958 | 35933 ft | 445 kts | 288° |
| 2026-04-07 14:08 | 39.10090 | 57.83405 | 35941 ft | 445 kts | 288° |
| 2026-04-07 14:08 | 39.12094 | 57.75861 | 35942 ft | 445 kts | 288° |
| 2026-04-07 14:09 | 39.14094 | 57.68306 | 35941 ft | 445 kts | 288° |
| 2026-04-07 14:09 | 39.16073 | 57.60804 | 35940 ft | 445 kts | 288° |
| 2026-04-07 14:10 | 39.18063 | 57.53242 | 35945 ft | 444 kts | 288° |
| 2026-04-07 14:10 | 39.20046 | 57.45684 | 35946 ft | 444 kts | 287° |
| 2026-04-07 14:11 | 39.22029 | 57.38105 | 35945 ft | 445 kts | 287° |
| 2026-04-07 14:11 | 39.23988 | 57.30590 | 35945 ft | 444 kts | 287° |
| 2026-04-07 14:12 | 39.25957 | 57.23017 | 35945 ft | 444 kts | 287° |
| 2026-04-07 14:12 | 39.27918 | 57.15450 | 35946 ft | 444 kts | 287° |
| 2026-04-07 14:13 | 39.29875 | 57.07876 | 35944 ft | 444 kts | 287° |
| 2026-04-07 14:13 | 39.31815 | 57.00343 | 35944 ft | 444 kts | 287° |
| 2026-04-07 14:14 | 39.33759 | 56.92769 | 35949 ft | 444 kts | 287° |
| 2026-04-07 14:14 | 39.35700 | 56.85183 | 35946 ft | 444 kts | 287° |
| 2026-04-07 14:15 | 39.37600 | 56.77584 | 35948 ft | 444 kts | 285° |
| 2026-04-07 14:15 | 39.39359 | 56.69928 | 35947 ft | 444 kts | 285° |
| 2026-04-07 14:16 | 39.41095 | 56.62326 | 35944 ft | 443 kts | 285° |
| 2026-04-07 14:16 | 39.42846 | 56.54667 | 35949 ft | 443 kts | 285° |
| 2026-04-07 14:17 | 39.44597 | 56.47001 | 35952 ft | 444 kts | 285° |
| 2026-04-07 14:17 | 39.46344 | 56.39332 | 35951 ft | 444 kts | 285° |
| 2026-04-07 14:18 | 39.48075 | 56.31710 | 35946 ft | 444 kts | 285° |
| 2026-04-07 14:18 | 39.49812 | 56.24034 | 35947 ft | 443 kts | 285° |
| 2026-04-07 14:19 | 39.51543 | 56.16358 | 35949 ft | 443 kts | 285° |
| 2026-04-07 14:19 | 39.53269 | 56.08681 | 35947 ft | 443 kts | 285° |
| 2026-04-07 14:20 | 39.54977 | 56.01054 | 35948 ft | 443 kts | 284° |
| 2026-04-07 14:20 | 39.56690 | 55.93373 | 35946 ft | 443 kts | 284° |
| 2026-04-07 14:21 | 39.58408 | 55.85684 | 35946 ft | 443 kts | 284° |
| 2026-04-07 14:21 | 39.60133 | 55.77999 | 35948 ft | 443 kts | 284° |
| 2026-04-07 14:22 | 39.61840 | 55.70364 | 35945 ft | 443 kts | 284° |
| 2026-04-07 14:22 | 39.63552 | 55.62675 | 35946 ft | 443 kts | 284° |
| 2026-04-07 14:23 | 39.65259 | 55.54980 | 35943 ft | 443 kts | 284° |
| 2026-04-07 14:23 | 39.66964 | 55.47267 | 35947 ft | 444 kts | 284° |
| 2026-04-07 14:24 | 39.68651 | 55.39603 | 35946 ft | 444 kts | 284° |
| 2026-04-07 14:24 | 39.70341 | 55.31891 | 35949 ft | 444 kts | 284° |
| 2026-04-07 14:25 | 39.72027 | 55.24161 | 35944 ft | 444 kts | 284° |
| 2026-04-07 14:25 | 39.73707 | 55.16423 | 35948 ft | 444 kts | 284° |
| 2026-04-07 14:26 | 39.75372 | 55.08723 | 35951 ft | 445 kts | 284° |
| 2026-04-07 14:26 | 39.77044 | 55.00969 | 35950 ft | 445 kts | 284° |
| 2026-04-07 14:27 | 39.78709 | 54.93210 | 35949 ft | 445 kts | 284° |
| 2026-04-07 14:27 | 39.80372 | 54.85437 | 35952 ft | 445 kts | 284° |
| 2026-04-07 14:28 | 39.82027 | 54.77668 | 35953 ft | 445 kts | 284° |
| 2026-04-07 14:28 | 39.83680 | 54.69934 | 35955 ft | 446 kts | 284° |
| 2026-04-07 14:29 | 39.85341 | 54.62156 | 35952 ft | 446 kts | 284° |
| 2026-04-07 14:29 | 39.86997 | 54.54364 | 35958 ft | 446 kts | 284° |
| 2026-04-07 14:30 | 39.88645 | 54.46575 | 35955 ft | 446 kts | 283° |
| 2026-04-07 14:30 | 39.90275 | 54.38822 | 35954 ft | 446 kts | 283° |
| 2026-04-07 14:31 | 39.91906 | 54.31006 | 35959 ft | 446 kts | 283° |
| 2026-04-07 14:31 | 39.93533 | 54.23181 | 35956 ft | 447 kts | 283° |
| 2026-04-07 14:32 | 39.95153 | 54.15354 | 35958 ft | 447 kts | 283° |
| 2026-04-07 14:32 | 39.96768 | 54.07529 | 35957 ft | 447 kts | 283° |
| 2026-04-07 14:33 | 39.98369 | 53.99742 | 35955 ft | 447 kts | 283° |
| 2026-04-07 14:33 | 39.99975 | 53.91904 | 35955 ft | 447 kts | 283° |
| 2026-04-07 14:34 | 40.01575 | 53.84059 | 35955 ft | 447 kts | 283° |
| 2026-04-07 14:34 | 40.03173 | 53.76199 | 35955 ft | 447 kts | 283° |
| 2026-04-07 14:35 | 40.04753 | 53.68396 | 35955 ft | 447 kts | 283° |
| 2026-04-07 14:35 | 40.06341 | 53.60526 | 35953 ft | 448 kts | 283° |
| 2026-04-07 14:36 | 40.07924 | 53.52649 | 35938 ft | 448 kts | 283° |
| 2026-04-07 14:36 | 40.09502 | 53.44766 | 35944 ft | 448 kts | 283° |
| 2026-04-07 14:37 | 40.11077 | 53.36871 | 35950 ft | 449 kts | 282° |
| 2026-04-07 14:37 | 40.12636 | 53.29019 | 35957 ft | 449 kts | 282° |
| 2026-04-07 14:38 | 40.14200 | 53.21116 | 35958 ft | 449 kts | 282° |
| 2026-04-07 14:38 | 40.15764 | 53.13187 | 35960 ft | 449 kts | 282° |
| 2026-04-07 14:39 | 40.18086 | 53.01345 | 35963 ft | 450 kts | 282° |
| 2026-04-07 14:40 | 40.19636 | 52.93403 | 35965 ft | 450 kts | 282° |
| 2026-04-07 14:40 | 40.21181 | 52.85460 | 35960 ft | 450 kts | 282° |
| 2026-04-07 14:41 | 40.22722 | 52.77502 | 35955 ft | 450 kts | 282° |
| 2026-04-07 14:41 | 40.24247 | 52.69591 | 35960 ft | 451 kts | 282° |
| 2026-04-07 14:42 | 40.25777 | 52.61623 | 35952 ft | 451 kts | 282° |
| 2026-04-07 14:42 | 40.27306 | 52.53644 | 35955 ft | 451 kts | 282° |
| 2026-04-07 14:43 | 40.28834 | 52.45659 | 35956 ft | 452 kts | 282° |
| 2026-04-07 14:43 | 40.30348 | 52.37715 | 35957 ft | 452 kts | 282° |
| 2026-04-07 14:44 | 40.31864 | 52.29719 | 35962 ft | 452 kts | 282° |
| 2026-04-07 14:44 | 40.33378 | 52.21704 | 35961 ft | 452 kts | 282° |
| 2026-04-07 14:45 | 40.34887 | 52.13685 | 35960 ft | 452 kts | 282° |
| 2026-04-07 14:45 | 40.36390 | 52.05663 | 35958 ft | 453 kts | 282° |
| 2026-04-07 14:46 | 40.37878 | 51.97686 | 35958 ft | 453 kts | 282° |
| 2026-04-07 14:46 | 40.39371 | 51.89646 | 35953 ft | 453 kts | 282° |
| 2026-04-07 14:47 | 40.40859 | 51.81604 | 35957 ft | 453 kts | 282° |
| 2026-04-07 14:47 | 40.42342 | 51.73553 | 35955 ft | 453 kts | 281° |
| 2026-04-07 14:48 | 40.43822 | 51.65487 | 35954 ft | 454 kts | 281° |
| 2026-04-07 14:48 | 40.45285 | 51.57474 | 35959 ft | 454 kts | 281° |
| 2026-04-07 14:49 | 40.46755 | 51.49394 | 35957 ft | 454 kts | 282° |
| 2026-04-07 14:49 | 40.48375 | 51.41358 | 35957 ft | 455 kts | 283° |
| 2026-04-07 14:50 | 40.50032 | 51.33321 | 35946 ft | 455 kts | 283° |
| 2026-04-07 14:50 | 40.51661 | 51.25336 | 35954 ft | 455 kts | 283° |
| 2026-04-07 14:51 | 40.53291 | 51.17287 | 35950 ft | 455 kts | 283° |
| 2026-04-07 14:51 | 40.54915 | 51.09220 | 35940 ft | 455 kts | 283° |
| 2026-04-07 14:52 | 40.56532 | 51.01150 | 35939 ft | 456 kts | 283° |
| 2026-04-07 14:52 | 40.58133 | 50.93132 | 35931 ft | 456 kts | 283° |
| 2026-04-07 14:53 | 40.59740 | 50.85049 | 35928 ft | 456 kts | 282° |
| 2026-04-07 14:53 | 40.61343 | 50.76960 | 35930 ft | 456 kts | 282° |
| 2026-04-07 14:54 | 40.62928 | 50.68920 | 35921 ft | 456 kts | 282° |
| 2026-04-07 14:54 | 40.64521 | 50.60813 | 35921 ft | 457 kts | 282° |
| 2026-04-07 14:55 | 40.66109 | 50.52696 | 35914 ft | 457 kts | 282° |
| 2026-04-07 14:55 | 40.67689 | 50.44584 | 35912 ft | 457 kts | 282° |
| 2026-04-07 14:56 | 40.69264 | 50.36463 | 35912 ft | 457 kts | 282° |
| 2026-04-07 14:56 | 40.70822 | 50.28385 | 35907 ft | 457 kts | 282° |
| 2026-04-07 14:57 | 40.72384 | 50.20252 | 35907 ft | 457 kts | 282° |
| 2026-04-07 14:57 | 40.73944 | 50.12099 | 35902 ft | 458 kts | 282° |
| 2026-04-07 14:58 | 40.75499 | 50.03939 | 35899 ft | 458 kts | 282° |
| 2026-04-07 14:58 | 40.77039 | 49.95821 | 35895 ft | 458 kts | 282° |
| 2026-04-07 14:59 | 40.78583 | 49.87645 | 35891 ft | 459 kts | 282° |
| 2026-04-07 14:59 | 40.80121 | 49.79471 | 35883 ft | 459 kts | 282° |
| 2026-04-07 15:00 | 40.81656 | 49.71279 | 35876 ft | 459 kts | 282° |
| 2026-04-07 15:00 | 40.83186 | 49.63072 | 35872 ft | 459 kts | 282° |
| 2026-04-07 15:01 | 40.84699 | 49.54929 | 35867 ft | 459 kts | 282° |
| 2026-04-07 15:01 | 40.86217 | 49.46717 | 35864 ft | 459 kts | 282° |
| 2026-04-07 15:02 | 40.87729 | 49.38503 | 35859 ft | 460 kts | 282° |
| 2026-04-07 15:02 | 40.89210 | 49.30269 | 35857 ft | 460 kts | 281° |
| 2026-04-07 15:03 | 40.90599 | 49.22073 | 35850 ft | 460 kts | 281° |
| 2026-04-07 15:03 | 40.91990 | 49.13813 | 35854 ft | 460 kts | 281° |
| 2026-04-07 15:04 | 40.93381 | 49.05543 | 35858 ft | 460 kts | 281° |
| 2026-04-07 15:04 | 40.94765 | 48.97284 | 35860 ft | 460 kts | 281° |
| 2026-04-07 15:05 | 40.96148 | 48.89005 | 35864 ft | 460 kts | 281° |
| 2026-04-07 15:05 | 40.97517 | 48.80775 | 35867 ft | 460 kts | 281° |
| 2026-04-07 15:06 | 40.98887 | 48.72493 | 35876 ft | 460 kts | 281° |
| 2026-04-07 15:06 | 41.00254 | 48.64193 | 35880 ft | 460 kts | 281° |
| 2026-04-07 15:07 | 41.01614 | 48.55890 | 35884 ft | 461 kts | 281° |
| 2026-04-07 15:07 | 41.02969 | 48.47583 | 35895 ft | 461 kts | 281° |
| 2026-04-07 15:08 | 41.04311 | 48.39322 | 35895 ft | 461 kts | 281° |
| 2026-04-07 15:08 | 41.05655 | 48.30999 | 35906 ft | 461 kts | 281° |
| 2026-04-07 15:09 | 41.06995 | 48.22662 | 35911 ft | 462 kts | 281° |
| 2026-04-07 15:09 | 41.08328 | 48.14331 | 35913 ft | 461 kts | 280° |
| 2026-04-07 15:10 | 41.09645 | 48.06055 | 35921 ft | 461 kts | 280° |
| 2026-04-07 15:10 | 41.10964 | 47.97724 | 35923 ft | 461 kts | 280° |
| 2026-04-07 15:11 | 41.12279 | 47.89391 | 35927 ft | 461 kts | 280° |
| 2026-04-07 15:11 | 41.13588 | 47.81063 | 35931 ft | 460 kts | 280° |
| 2026-04-07 15:12 | 41.14887 | 47.72747 | 35930 ft | 460 kts | 280° |
| 2026-04-07 15:12 | 41.16181 | 47.64423 | 35941 ft | 459 kts | 280° |
| 2026-04-07 15:13 | 41.17458 | 47.56163 | 35939 ft | 459 kts | 280° |
| 2026-04-07 15:13 | 41.18736 | 47.47853 | 35944 ft | 459 kts | 280° |
| 2026-04-07 15:14 | 41.20010 | 47.39530 | 35951 ft | 459 kts | 280° |
| 2026-04-07 15:14 | 41.21277 | 47.31210 | 35959 ft | 459 kts | 280° |
| 2026-04-07 15:15 | 41.22530 | 47.22944 | 35955 ft | 459 kts | 280° |
| 2026-04-07 15:15 | 41.23790 | 47.14575 | 36313 ft | 461 kts | 280° |
| 2026-04-07 15:15 | 41.24416 | 47.10408 | 36757 ft | 458 kts | 280° |
| 2026-04-07 15:16 | 41.25036 | 47.06267 | 37138 ft | 456 kts | 280° |
| 2026-04-07 15:16 | 41.25655 | 47.02126 | 37439 ft | 456 kts | 280° |
| 2026-04-07 15:16 | 41.26272 | 46.97986 | 37708 ft | 456 kts | 280° |
| 2026-04-07 15:16 | 41.26679 | 46.95247 | 37876 ft | 456 kts | 279° |
| 2026-04-07 15:17 | 41.27492 | 46.89759 | 37943 ft | 456 kts | 279° |
| 2026-04-07 15:17 | 41.28715 | 46.81473 | 37966 ft | 456 kts | 279° |
| 2026-04-07 15:18 | 41.29930 | 46.73169 | 37958 ft | 456 kts | 279° |
| 2026-04-07 15:18 | 41.31101 | 46.64864 | 37951 ft | 456 kts | 279° |
| 2026-04-07 15:19 | 41.32253 | 46.56617 | 37961 ft | 456 kts | 279° |
| 2026-04-07 15:19 | 41.33409 | 46.48300 | 37951 ft | 456 kts | 279° |
| 2026-04-07 15:20 | 41.34561 | 46.39975 | 37946 ft | 456 kts | 279° |
| 2026-04-07 15:20 | 41.35513 | 46.33063 | 37943 ft | 456 kts | 279° |
| 2026-04-07 15:21 | 41.36654 | 46.24737 | 37942 ft | 456 kts | 279° |
| 2026-04-07 15:21 | 41.37973 | 46.15054 | 37933 ft | 457 kts | 279° |
| 2026-04-07 15:22 | 41.38911 | 46.08132 | 37933 ft | 457 kts | 279° |
| 2026-04-07 15:22 | 41.40034 | 45.99794 | 37931 ft | 457 kts | 279° |
| 2026-04-07 15:23 | 41.41155 | 45.91432 | 37932 ft | 457 kts | 279° |
| 2026-04-07 15:23 | 41.42447 | 45.81728 | 37930 ft | 457 kts | 279° |
| 2026-04-07 15:24 | 41.43366 | 45.74786 | 37921 ft | 457 kts | 278° |
| 2026-04-07 15:24 | 41.44467 | 45.66419 | 37926 ft | 457 kts | 278° |
| 2026-04-07 15:25 | 41.45563 | 45.58050 | 37923 ft | 458 kts | 278° |
| 2026-04-07 15:25 | 41.46652 | 45.49683 | 37913 ft | 458 kts | 278° |
| 2026-04-07 15:26 | 41.47734 | 45.41306 | 37922 ft | 458 kts | 278° |
| 2026-04-07 15:26 | 41.48641 | 45.32950 | 37917 ft | 457 kts | 275° |
| 2026-04-07 15:27 | 41.49339 | 45.24514 | 37917 ft | 457 kts | 275° |
| 2026-04-07 15:27 | 41.50026 | 45.16068 | 37919 ft | 457 kts | 275° |
| 2026-04-07 15:28 | 41.50709 | 45.07618 | 37916 ft | 457 kts | 275° |
| 2026-04-07 15:28 | 41.51381 | 44.99231 | 37918 ft | 457 kts | 275° |
| 2026-04-07 15:29 | 41.52051 | 44.90785 | 37915 ft | 457 kts | 275° |
| 2026-04-07 15:29 | 41.52716 | 44.82333 | 37921 ft | 457 kts | 275° |
| 2026-04-07 15:30 | 41.53373 | 44.73889 | 37920 ft | 457 kts | 275° |
| 2026-04-07 15:30 | 41.54021 | 44.65492 | 37929 ft | 457 kts | 275° |
| 2026-04-07 15:31 | 41.54667 | 44.57040 | 37940 ft | 457 kts | 275° |
| 2026-04-07 15:31 | 41.55307 | 44.48586 | 37955 ft | 457 kts | 275° |
| 2026-04-07 15:32 | 41.55940 | 44.40128 | 37950 ft | 457 kts | 275° |
| 2026-04-07 15:32 | 41.56564 | 44.31715 | 37954 ft | 458 kts | 275° |
| 2026-04-07 15:33 | 41.57186 | 44.23237 | 37952 ft | 458 kts | 275° |
| 2026-04-07 15:33 | 41.57844 | 44.14763 | 37953 ft | 458 kts | 275° |
| 2026-04-07 15:34 | 41.58512 | 44.06284 | 37957 ft | 458 kts | 275° |
| 2026-04-07 15:34 | 41.59165 | 43.97867 | 37953 ft | 458 kts | 275° |
| 2026-04-07 15:35 | 41.59814 | 43.89401 | 37961 ft | 457 kts | 275° |
| 2026-04-07 15:35 | 41.60456 | 43.80945 | 37958 ft | 457 kts | 275° |
| 2026-04-07 15:36 | 41.61089 | 43.72488 | 37957 ft | 457 kts | 275° |
| 2026-04-07 15:36 | 41.61718 | 43.64035 | 37950 ft | 456 kts | 275° |
| 2026-04-07 15:37 | 41.62334 | 43.55645 | 37947 ft | 456 kts | 275° |
| 2026-04-07 15:37 | 41.62949 | 43.47202 | 37949 ft | 456 kts | 275° |
| 2026-04-07 15:38 | 41.63563 | 43.38759 | 37943 ft | 455 kts | 275° |
| 2026-04-07 15:38 | 41.64169 | 43.30331 | 37946 ft | 455 kts | 275° |
| 2026-04-07 15:39 | 41.64764 | 43.21961 | 37942 ft | 454 kts | 275° |
| 2026-04-07 15:39 | 41.65356 | 43.13533 | 37939 ft | 454 kts | 275° |
| 2026-04-07 15:40 | 41.65943 | 43.05094 | 37942 ft | 454 kts | 275° |
| 2026-04-07 15:40 | 41.66521 | 42.96675 | 37942 ft | 454 kts | 275° |
| 2026-04-07 15:41 | 41.66913 | 42.88306 | 37937 ft | 453 kts | 270° |
| 2026-04-07 15:41 | 41.66709 | 42.79869 | 37937 ft | 453 kts | 265° |
| 2026-04-07 15:42 | 41.66050 | 42.71480 | 37938 ft | 453 kts | 264° |
| 2026-04-07 15:42 | 41.65003 | 42.58913 | 37936 ft | 453 kts | 263° |
| 2026-04-07 15:43 | 41.64302 | 42.50583 | 37934 ft | 453 kts | 263° |
| 2026-04-07 15:43 | 41.63592 | 42.42209 | 37938 ft | 453 kts | 263° |
| 2026-04-07 15:44 | 41.62875 | 42.33838 | 37935 ft | 453 kts | 263° |
| 2026-04-07 15:44 | 41.62153 | 42.25466 | 37942 ft | 452 kts | 263° |
| 2026-04-07 15:45 | 41.61430 | 42.17155 | 37941 ft | 453 kts | 263° |
| 2026-04-07 15:45 | 41.60695 | 42.08796 | 37936 ft | 452 kts | 263° |
| 2026-04-07 15:46 | 41.59956 | 42.00440 | 37931 ft | 452 kts | 263° |
| 2026-04-07 15:46 | 41.59210 | 41.92082 | 37928 ft | 452 kts | 263° |
| 2026-04-07 15:47 | 41.58459 | 41.83743 | 37924 ft | 451 kts | 263° |
| 2026-04-07 15:47 | 41.57707 | 41.75467 | 37907 ft | 450 kts | 263° |
| 2026-04-07 15:48 | 41.56947 | 41.67155 | 37911 ft | 450 kts | 263° |
| 2026-04-07 15:48 | 41.56179 | 41.58843 | 37911 ft | 450 kts | 263° |
| 2026-04-07 15:49 | 41.55454 | 41.50530 | 37914 ft | 449 kts | 265° |
| 2026-04-07 15:49 | 41.55207 | 41.42186 | 37916 ft | 449 kts | 270° |
| 2026-04-07 15:50 | 41.55523 | 41.33905 | 37920 ft | 449 kts | 274° |
| 2026-04-07 15:50 | 41.55998 | 41.25594 | 37919 ft | 448 kts | 274° |
| 2026-04-07 15:51 | 41.56471 | 41.17289 | 37923 ft | 447 kts | 274° |
| 2026-04-07 15:51 | 41.56938 | 41.08997 | 37923 ft | 447 kts | 273° |
| 2026-04-07 15:52 | 41.57397 | 41.00714 | 37920 ft | 446 kts | 273° |
| 2026-04-07 15:52 | 41.57846 | 40.92498 | 37921 ft | 446 kts | 273° |
| 2026-04-07 15:53 | 41.58292 | 40.84233 | 37922 ft | 445 kts | 273° |
| 2026-04-07 15:53 | 41.58732 | 40.75967 | 37922 ft | 445 kts | 273° |
| 2026-04-07 15:54 | 41.59166 | 40.67699 | 37922 ft | 445 kts | 273° |
| 2026-04-07 15:54 | 41.59591 | 40.59494 | 37922 ft | 445 kts | 273° |
| 2026-04-07 15:55 | 41.60012 | 40.51230 | 37920 ft | 445 kts | 272° |
| 2026-04-07 15:55 | 41.60426 | 40.42973 | 37923 ft | 445 kts | 272° |
| 2026-04-07 15:56 | 41.60836 | 40.34710 | 37926 ft | 445 kts | 272° |
| 2026-04-07 15:56 | 41.61236 | 40.26503 | 37924 ft | 444 kts | 272° |
| 2026-04-07 15:57 | 41.61632 | 40.18257 | 37923 ft | 444 kts | 272° |
| 2026-04-07 15:57 | 41.62022 | 40.10003 | 37930 ft | 444 kts | 272° |
| 2026-04-07 15:58 | 41.62407 | 40.01752 | 37938 ft | 444 kts | 272° |
| 2026-04-07 15:58 | 41.62782 | 39.93564 | 37936 ft | 444 kts | 272° |
| 2026-04-07 15:59 | 41.63154 | 39.85327 | 37939 ft | 443 kts | 272° |
| 2026-04-07 15:59 | 41.63520 | 39.77091 | 37944 ft | 443 kts | 272° |
| 2026-04-07 16:00 | 41.63881 | 39.68854 | 37946 ft | 442 kts | 272° |
| 2026-04-07 16:00 | 41.64230 | 39.60683 | 37946 ft | 442 kts | 272° |
| 2026-04-07 16:01 | 41.64578 | 39.52471 | 37952 ft | 442 kts | 272° |
| 2026-04-07 16:01 | 41.64919 | 39.44266 | 37953 ft | 441 kts | 272° |
| 2026-04-07 16:02 | 41.65254 | 39.36061 | 37960 ft | 441 kts | 271° |
| 2026-04-07 16:02 | 41.65582 | 39.27869 | 37962 ft | 440 kts | 271° |
| 2026-04-07 16:03 | 41.65902 | 39.19743 | 37966 ft | 440 kts | 271° |
| 2026-04-07 16:03 | 41.66218 | 39.11576 | 37967 ft | 439 kts | 271° |
| 2026-04-07 16:04 | 41.66528 | 39.03401 | 37965 ft | 439 kts | 271° |
| 2026-04-07 16:04 | 41.66833 | 38.95223 | 37969 ft | 439 kts | 271° |
| 2026-04-07 16:05 | 41.67131 | 38.87051 | 37971 ft | 439 kts | 271° |
| 2026-04-07 16:05 | 41.67421 | 38.78944 | 37972 ft | 439 kts | 271° |
| 2026-04-07 16:06 | 41.67708 | 38.70764 | 37973 ft | 439 kts | 271° |
| 2026-04-07 16:06 | 41.67989 | 38.62592 | 37974 ft | 439 kts | 271° |
| 2026-04-07 16:07 | 41.68264 | 38.54411 | 37973 ft | 439 kts | 271° |
| 2026-04-07 16:07 | 41.68531 | 38.46295 | 37978 ft | 439 kts | 271° |
| 2026-04-07 16:08 | 41.68794 | 38.38125 | 37983 ft | 439 kts | 271° |
| 2026-04-07 16:08 | 41.69052 | 38.29949 | 37992 ft | 438 kts | 271° |
| 2026-04-07 16:09 | 41.69304 | 38.21783 | 37988 ft | 439 kts | 271° |
| 2026-04-07 16:09 | 41.69549 | 38.13654 | 37994 ft | 439 kts | 271° |
| 2026-04-07 16:10 | 41.69789 | 38.05465 | 37993 ft | 440 kts | 271° |
| 2026-04-07 16:10 | 41.70024 | 37.97268 | 38003 ft | 440 kts | 271° |
| 2026-04-07 16:11 | 41.70253 | 37.89063 | 38006 ft | 441 kts | 271° |
| 2026-04-07 16:11 | 41.70475 | 37.80908 | 38010 ft | 441 kts | 271° |
| 2026-04-07 16:12 | 41.70692 | 37.72691 | 38010 ft | 441 kts | 271° |
| 2026-04-07 16:12 | 41.70904 | 37.64472 | 38014 ft | 441 kts | 271° |
| 2026-04-07 16:13 | 41.71110 | 37.56242 | 38014 ft | 442 kts | 271° |
| 2026-04-07 16:13 | 41.71310 | 37.48073 | 38015 ft | 441 kts | 271° |
| 2026-04-07 16:14 | 41.71504 | 37.39837 | 38014 ft | 442 kts | 271° |
| 2026-04-07 16:14 | 41.71693 | 37.31604 | 38016 ft | 442 kts | 271° |
| 2026-04-07 16:15 | 41.71876 | 37.23356 | 38016 ft | 443 kts | 271° |
| 2026-04-07 16:15 | 41.72052 | 37.15161 | 38019 ft | 443 kts | 271° |
| 2026-04-07 16:16 | 41.72223 | 37.06906 | 38019 ft | 443 kts | 271° |
| 2026-04-07 16:16 | 41.72389 | 36.98634 | 38022 ft | 444 kts | 271° |
| 2026-04-07 16:17 | 41.72549 | 36.90365 | 38023 ft | 444 kts | 271° |
| 2026-04-07 16:17 | 41.72703 | 36.82075 | 38025 ft | 444 kts | 271° |
| 2026-04-07 16:18 | 41.72850 | 36.73856 | 38020 ft | 445 kts | 271° |
| 2026-04-07 16:18 | 41.72992 | 36.65559 | 38022 ft | 445 kts | 271° |
| 2026-04-07 16:19 | 41.73129 | 36.57263 | 38028 ft | 445 kts | 271° |
| 2026-04-07 16:19 | 41.73259 | 36.48961 | 38030 ft | 445 kts | 271° |
| 2026-04-07 16:20 | 41.73383 | 36.40720 | 38036 ft | 445 kts | 271° |
| 2026-04-07 16:20 | 41.73502 | 36.32414 | 38033 ft | 445 kts | 271° |
| 2026-04-07 16:21 | 41.73614 | 36.24100 | 38032 ft | 446 kts | 271° |
| 2026-04-07 16:21 | 41.73721 | 36.15785 | 38040 ft | 446 kts | 271° |
| 2026-04-07 16:22 | 41.73822 | 36.07507 | 38039 ft | 447 kts | 271° |
| 2026-04-07 16:22 | 41.73917 | 35.99176 | 38037 ft | 447 kts | 271° |
| 2026-04-07 16:23 | 41.74005 | 35.90833 | 38038 ft | 446 kts | 271° |
| 2026-04-07 16:23 | 41.74087 | 35.82524 | 38044 ft | 445 kts | 271° |
| 2026-04-07 16:24 | 41.74163 | 35.74283 | 38048 ft | 445 kts | 271° |
| 2026-04-07 16:24 | 41.74233 | 35.65999 | 38047 ft | 443 kts | 271° |
| 2026-04-07 16:25 | 41.74298 | 35.57737 | 38044 ft | 443 kts | 271° |
| 2026-04-07 16:25 | 41.74357 | 35.49486 | 38052 ft | 442 kts | 271° |
| 2026-04-07 16:26 | 41.74410 | 35.41301 | 38049 ft | 442 kts | 271° |
| 2026-04-07 16:26 | 41.74457 | 35.33062 | 38051 ft | 442 kts | 271° |
| 2026-04-07 16:27 | 41.74498 | 35.24812 | 38053 ft | 442 kts | 271° |
| 2026-04-07 16:27 | 41.74533 | 35.16578 | 38054 ft | 442 kts | 271° |
| 2026-04-07 16:28 | 41.74561 | 35.08395 | 38055 ft | 442 kts | 271° |
| 2026-04-07 16:28 | 41.74585 | 35.00142 | 38058 ft | 442 kts | 271° |
| 2026-04-07 16:29 | 41.74603 | 34.91884 | 38059 ft | 444 kts | 271° |
| 2026-04-07 16:29 | 41.74614 | 34.83603 | 38064 ft | 444 kts | 271° |
| 2026-04-07 16:30 | 41.74617 | 34.75300 | 38052 ft | 446 kts | 271° |
| 2026-04-07 16:30 | 41.74760 | 34.67026 | 38198 ft | 449 kts | 274° |
| 2026-04-07 16:31 | 41.75040 | 34.62866 | 38568 ft | 447 kts | 277° |
| 2026-04-07 16:31 | 41.75464 | 34.58746 | 38894 ft | 445 kts | 279° |
| 2026-04-07 16:31 | 41.76031 | 34.54667 | 39052 ft | 446 kts | 282° |
| 2026-04-07 16:31 | 41.76748 | 34.50612 | 39058 ft | 446 kts | 284° |
| 2026-04-07 16:32 | 41.78532 | 34.42632 | 39059 ft | 447 kts | 287° |
| 2026-04-07 16:32 | 41.80401 | 34.34652 | 39067 ft | 448 kts | 287° |
| 2026-04-07 16:33 | 41.82254 | 34.26718 | 39066 ft | 449 kts | 287° |
| 2026-04-07 16:33 | 41.84114 | 34.18716 | 39077 ft | 450 kts | 287° |
| 2026-04-07 16:34 | 41.85974 | 34.10682 | 39079 ft | 451 kts | 286° |
| 2026-04-07 16:34 | 41.87818 | 34.02687 | 39086 ft | 451 kts | 286° |
| 2026-04-07 16:35 | 41.89674 | 33.94609 | 39086 ft | 453 kts | 286° |
| 2026-04-07 16:35 | 41.91528 | 33.86512 | 39087 ft | 453 kts | 286° |
| 2026-04-07 16:36 | 41.93385 | 33.78365 | 39090 ft | 454 kts | 286° |
| 2026-04-07 16:36 | 41.95214 | 33.70214 | 39090 ft | 455 kts | 284° |
| 2026-04-07 16:37 | 41.96815 | 33.62033 | 39089 ft | 455 kts | 284° |
| 2026-04-07 16:37 | 41.98403 | 33.53773 | 39092 ft | 456 kts | 284° |
| 2026-04-07 16:38 | 41.99986 | 33.45504 | 39101 ft | 457 kts | 284° |
| 2026-04-07 16:38 | 42.01571 | 33.37208 | 39105 ft | 457 kts | 284° |
| 2026-04-07 16:39 | 42.03149 | 33.28914 | 39098 ft | 458 kts | 284° |
| 2026-04-07 16:39 | 42.04715 | 33.20651 | 39099 ft | 458 kts | 284° |
| 2026-04-07 16:40 | 42.06283 | 33.12332 | 39102 ft | 458 kts | 284° |
| 2026-04-07 16:40 | 42.07884 | 33.04008 | 39101 ft | 458 kts | 285° |
| 2026-04-07 16:41 | 42.09593 | 32.95731 | 39104 ft | 459 kts | 285° |
| 2026-04-07 16:41 | 42.11286 | 32.87503 | 39105 ft | 458 kts | 285° |
| 2026-04-07 16:42 | 42.12977 | 32.79203 | 39104 ft | 459 kts | 285° |
| 2026-04-07 16:42 | 42.14656 | 32.70908 | 39104 ft | 458 kts | 285° |
| 2026-04-07 16:43 | 42.16327 | 32.62609 | 39103 ft | 458 kts | 285° |
| 2026-04-07 16:43 | 42.17991 | 32.54312 | 39102 ft | 457 kts | 285° |
| 2026-04-07 16:44 | 42.19635 | 32.46074 | 39098 ft | 457 kts | 285° |
| 2026-04-07 16:44 | 42.21286 | 32.37774 | 39098 ft | 457 kts | 285° |
| 2026-04-07 16:45 | 42.22928 | 32.29472 | 39097 ft | 457 kts | 285° |
| 2026-04-07 16:45 | 42.24564 | 32.21169 | 39099 ft | 457 kts | 285° |
| 2026-04-07 16:46 | 42.26179 | 32.12908 | 39095 ft | 458 kts | 285° |
| 2026-04-07 16:46 | 42.27805 | 32.04592 | 39096 ft | 457 kts | 285° |
| 2026-04-07 16:47 | 42.29430 | 31.96276 | 39094 ft | 458 kts | 285° |
| 2026-04-07 16:47 | 42.31050 | 31.87943 | 39096 ft | 458 kts | 285° |
| 2026-04-07 16:48 | 42.32652 | 31.79667 | 39091 ft | 458 kts | 285° |
| 2026-04-07 16:49 | 42.35061 | 31.67152 | 39089 ft | 458 kts | 285° |
| 2026-04-07 16:49 | 42.36661 | 31.58794 | 39091 ft | 458 kts | 285° |
| 2026-04-07 16:50 | 42.38243 | 31.50495 | 39088 ft | 459 kts | 285° |
| 2026-04-07 16:50 | 42.39833 | 31.42117 | 39090 ft | 459 kts | 285° |
| 2026-04-07 16:51 | 42.41415 | 31.33743 | 39085 ft | 459 kts | 285° |
| 2026-04-07 16:51 | 42.42993 | 31.25355 | 39090 ft | 459 kts | 285° |
| 2026-04-07 16:52 | 42.44565 | 31.16962 | 39088 ft | 459 kts | 285° |
| 2026-04-07 16:52 | 42.46120 | 31.08621 | 39087 ft | 459 kts | 284° |
| 2026-04-07 16:53 | 42.47678 | 31.00219 | 39088 ft | 460 kts | 284° |
| 2026-04-07 16:53 | 42.49233 | 30.91795 | 39090 ft | 460 kts | 284° |
| 2026-04-07 16:54 | 42.50780 | 30.83374 | 39085 ft | 460 kts | 284° |
| 2026-04-07 16:54 | 42.52311 | 30.75005 | 39087 ft | 460 kts | 284° |
| 2026-04-07 16:55 | 42.53848 | 30.66565 | 39086 ft | 460 kts | 284° |
| 2026-04-07 16:55 | 42.55380 | 30.58114 | 39087 ft | 461 kts | 284° |
| 2026-04-07 16:56 | 42.56905 | 30.49657 | 39081 ft | 461 kts | 284° |
| 2026-04-07 16:56 | 42.58416 | 30.41241 | 39080 ft | 461 kts | 284° |
| 2026-04-07 16:57 | 42.60289 | 30.32919 | 39081 ft | 461 kts | 291° |
| 2026-04-07 16:57 | 42.62895 | 30.24949 | 39082 ft | 461 kts | 298° |
| 2026-04-07 16:58 | 42.66200 | 30.17471 | 39074 ft | 462 kts | 304° |
| 2026-04-07 16:58 | 42.70029 | 30.10511 | 39075 ft | 462 kts | 307° |
| 2026-04-07 16:59 | 42.73965 | 30.03582 | 39072 ft | 463 kts | 307° |
| 2026-04-07 16:59 | 42.77899 | 29.96632 | 39078 ft | 463 kts | 307° |
| 2026-04-07 17:00 | 42.81829 | 29.89661 | 39074 ft | 463 kts | 307° |
| 2026-04-07 17:00 | 42.85720 | 29.82736 | 39073 ft | 463 kts | 307° |
| 2026-04-07 17:01 | 42.89636 | 29.75752 | 39071 ft | 463 kts | 307° |
| 2026-04-07 17:01 | 42.93548 | 29.68756 | 39073 ft | 462 kts | 307° |
| 2026-04-07 17:02 | 42.97447 | 29.61767 | 39076 ft | 462 kts | 307° |
| 2026-04-07 17:02 | 43.01339 | 29.54773 | 39068 ft | 462 kts | 307° |
| 2026-04-07 17:03 | 43.05199 | 29.47821 | 39055 ft | 461 kts | 307° |
| 2026-04-07 17:03 | 43.09078 | 29.40820 | 39069 ft | 461 kts | 307° |
| 2026-04-07 17:04 | 43.12952 | 29.33811 | 39077 ft | 461 kts | 307° |
| 2026-04-07 17:04 | 43.16822 | 29.26791 | 39070 ft | 460 kts | 306° |
| 2026-04-07 17:05 | 43.20649 | 29.19832 | 39061 ft | 459 kts | 306° |
| 2026-04-07 17:05 | 43.24491 | 29.12829 | 39060 ft | 459 kts | 306° |
| 2026-04-07 17:06 | 43.28331 | 29.05814 | 39061 ft | 459 kts | 306° |
| 2026-04-07 17:06 | 43.32160 | 28.98802 | 39062 ft | 459 kts | 306° |
| 2026-04-07 17:07 | 43.35988 | 28.91777 | 39064 ft | 458 kts | 306° |
| 2026-04-07 17:07 | 43.39778 | 28.84804 | 39059 ft | 458 kts | 306° |
| 2026-04-07 17:08 | 43.43592 | 28.77768 | 39057 ft | 458 kts | 306° |
| 2026-04-07 17:08 | 43.47401 | 28.70727 | 39053 ft | 458 kts | 306° |
| 2026-04-07 17:09 | 43.51210 | 28.63667 | 39050 ft | 458 kts | 306° |
| 2026-04-07 17:09 | 43.54983 | 28.56659 | 39044 ft | 458 kts | 306° |
| 2026-04-07 17:10 | 43.58777 | 28.49596 | 39044 ft | 457 kts | 306° |
| 2026-04-07 17:10 | 43.62557 | 28.42541 | 39035 ft | 456 kts | 306° |
| 2026-04-07 17:11 | 43.66325 | 28.35491 | 39037 ft | 455 kts | 306° |
| 2026-04-07 17:11 | 43.70087 | 28.28435 | 39015 ft | 455 kts | 306° |
| 2026-04-07 17:12 | 43.73809 | 28.21438 | 39023 ft | 454 kts | 306° |
| 2026-04-07 17:12 | 43.77550 | 28.14387 | 39015 ft | 454 kts | 306° |
| 2026-04-07 17:13 | 43.81280 | 28.07341 | 39022 ft | 453 kts | 306° |
| 2026-04-07 17:13 | 43.84997 | 28.00302 | 39022 ft | 452 kts | 306° |
| 2026-04-07 17:14 | 43.88710 | 27.93253 | 39022 ft | 451 kts | 306° |
| 2026-04-07 17:14 | 43.92379 | 27.86272 | 39015 ft | 451 kts | 306° |
| 2026-04-07 17:15 | 43.96073 | 27.79225 | 39011 ft | 450 kts | 306° |
| 2026-04-07 17:15 | 43.99750 | 27.72195 | 39014 ft | 450 kts | 306° |
| 2026-04-07 17:16 | 44.03421 | 27.65160 | 39013 ft | 449 kts | 306° |
| 2026-04-07 17:16 | 44.07082 | 27.58126 | 39009 ft | 448 kts | 306° |
| 2026-04-07 17:17 | 44.10709 | 27.51141 | 39009 ft | 447 kts | 306° |
| 2026-04-07 17:17 | 44.14345 | 27.44121 | 39005 ft | 446 kts | 306° |
| 2026-04-07 17:18 | 44.17974 | 27.37100 | 39005 ft | 445 kts | 306° |
| 2026-04-07 17:18 | 44.21589 | 27.30087 | 39003 ft | 445 kts | 306° |
| 2026-04-07 17:19 | 44.25171 | 27.23121 | 39009 ft | 444 kts | 306° |
| 2026-04-07 17:19 | 44.28771 | 27.16105 | 39004 ft | 444 kts | 306° |
| 2026-04-07 17:20 | 44.32364 | 27.09086 | 39001 ft | 443 kts | 306° |
| 2026-04-07 17:20 | 44.35940 | 27.02081 | 38996 ft | 442 kts | 306° |
| 2026-04-07 17:21 | 44.39488 | 26.95117 | 39000 ft | 441 kts | 306° |
| 2026-04-07 17:21 | 44.43045 | 26.88117 | 38997 ft | 441 kts | 306° |
| 2026-04-07 17:22 | 44.46592 | 26.81118 | 38998 ft | 440 kts | 305° |
| 2026-04-07 17:22 | 44.50127 | 26.74127 | 38987 ft | 439 kts | 305° |
| 2026-04-07 17:23 | 44.53654 | 26.67132 | 38991 ft | 439 kts | 305° |
| 2026-04-07 17:23 | 44.56660 | 26.61142 | 38988 ft | 438 kts | 304° |
| 2026-04-07 17:24 | 44.59869 | 26.53805 | 38987 ft | 438 kts | 299° |
| 2026-04-07 17:24 | 44.62586 | 26.46146 | 38988 ft | 438 kts | 296° |
| 2026-04-07 17:25 | 44.65198 | 26.38414 | 38989 ft | 437 kts | 296° |
| 2026-04-07 17:25 | 44.67781 | 26.30741 | 38986 ft | 437 kts | 296° |
| 2026-04-07 17:26 | 44.70377 | 26.23008 | 38993 ft | 437 kts | 296° |
| 2026-04-07 17:26 | 44.72966 | 26.15278 | 38992 ft | 436 kts | 296° |
| 2026-04-07 17:27 | 44.75550 | 26.07540 | 38993 ft | 436 kts | 296° |
| 2026-04-07 17:27 | 44.78106 | 25.99865 | 38991 ft | 435 kts | 296° |
| 2026-04-07 17:28 | 44.80674 | 25.92131 | 38989 ft | 435 kts | 296° |
| 2026-04-07 17:28 | 44.83228 | 25.84417 | 38985 ft | 434 kts | 296° |
| 2026-04-07 17:29 | 44.85775 | 25.76700 | 38993 ft | 433 kts | 296° |
| 2026-04-07 17:29 | 44.88313 | 25.68990 | 38989 ft | 433 kts | 296° |
| 2026-04-07 17:30 | 44.90826 | 25.61335 | 38994 ft | 432 kts | 296° |
| 2026-04-07 17:30 | 44.93349 | 25.53625 | 38988 ft | 432 kts | 296° |
| 2026-04-07 17:31 | 44.95862 | 25.45924 | 38998 ft | 431 kts | 296° |
| 2026-04-07 17:31 | 44.98364 | 25.38231 | 38996 ft | 431 kts | 296° |
| 2026-04-07 17:32 | 45.00846 | 25.30581 | 38997 ft | 431 kts | 296° |
| 2026-04-07 17:32 | 45.03340 | 25.22868 | 39000 ft | 430 kts | 296° |
| 2026-04-07 17:33 | 45.05827 | 25.15158 | 39001 ft | 431 kts | 296° |
| 2026-04-07 17:33 | 45.08312 | 25.07430 | 39003 ft | 431 kts | 296° |
| 2026-04-07 17:34 | 45.10138 | 25.01735 | 39008 ft | 430 kts | 296° |
| 2026-04-07 17:34 | 45.12592 | 24.94062 | 39014 ft | 429 kts | 296° |
| 2026-04-07 17:35 | 45.15051 | 24.86350 | 39008 ft | 428 kts | 296° |
| 2026-04-07 17:35 | 45.17497 | 24.78656 | 39014 ft | 428 kts | 296° |
| 2026-04-07 17:36 | 45.19936 | 24.70962 | 39013 ft | 426 kts | 296° |
| 2026-04-07 17:36 | 45.22347 | 24.63337 | 39026 ft | 426 kts | 296° |
| 2026-04-07 17:37 | 45.24773 | 24.55641 | 39020 ft | 427 kts | 296° |
| 2026-04-07 17:37 | 45.27194 | 24.47939 | 39025 ft | 427 kts | 296° |
| 2026-04-07 17:38 | 45.29609 | 24.40227 | 39030 ft | 427 kts | 296° |
| 2026-04-07 17:38 | 45.32025 | 24.32488 | 39036 ft | 428 kts | 296° |
| 2026-04-07 17:39 | 45.34422 | 24.24800 | 39046 ft | 427 kts | 296° |
| 2026-04-07 17:39 | 45.36821 | 24.17073 | 39040 ft | 426 kts | 296° |
| 2026-04-07 17:40 | 45.39206 | 24.09364 | 39047 ft | 425 kts | 296° |
| 2026-04-07 17:40 | 45.41583 | 24.01660 | 39047 ft | 424 kts | 296° |
| 2026-04-07 17:41 | 45.43927 | 23.94020 | 39105 ft | 421 kts | 297° |
| 2026-04-07 17:41 | 45.46246 | 23.86438 | 39064 ft | 416 kts | 297° |
| 2026-04-07 17:42 | 45.48569 | 23.78848 | 39062 ft | 417 kts | 297° |
| 2026-04-07 17:42 | 45.50890 | 23.71243 | 39053 ft | 418 kts | 297° |
| 2026-04-07 17:43 | 45.53197 | 23.63656 | 39060 ft | 420 kts | 297° |
| 2026-04-07 17:43 | 45.55520 | 23.55993 | 39062 ft | 421 kts | 297° |
| 2026-04-07 17:44 | 45.57840 | 23.48311 | 39066 ft | 421 kts | 297° |
| 2026-04-07 17:44 | 45.60152 | 23.40635 | 39065 ft | 421 kts | 297° |
| 2026-04-07 17:45 | 45.62462 | 23.32945 | 39060 ft | 421 kts | 297° |
| 2026-04-07 17:45 | 45.64754 | 23.25290 | 39063 ft | 421 kts | 297° |
| 2026-04-07 17:46 | 45.67053 | 23.17586 | 39060 ft | 420 kts | 297° |
| 2026-04-07 17:46 | 45.69341 | 23.09896 | 39060 ft | 420 kts | 297° |
| 2026-04-07 17:47 | 45.71622 | 23.02207 | 39061 ft | 419 kts | 297° |
| 2026-04-07 17:47 | 45.73898 | 22.94512 | 39061 ft | 419 kts | 297° |
| 2026-04-07 17:48 | 45.76148 | 22.86880 | 39063 ft | 418 kts | 297° |
| 2026-04-07 17:48 | 45.78407 | 22.79198 | 39070 ft | 418 kts | 297° |
| 2026-04-07 17:49 | 45.80658 | 22.71517 | 39057 ft | 418 kts | 297° |
| 2026-04-07 17:49 | 45.82910 | 22.63812 | 39065 ft | 418 kts | 297° |
| 2026-04-07 17:50 | 45.85139 | 22.56158 | 39067 ft | 418 kts | 297° |
| 2026-04-07 17:50 | 45.87378 | 22.48445 | 39069 ft | 418 kts | 297° |
| 2026-04-07 17:51 | 45.89614 | 22.40723 | 39068 ft | 418 kts | 297° |
| 2026-04-07 17:51 | 45.91466 | 22.34301 | 39069 ft | 418 kts | 297° |
| 2026-04-07 17:52 | 45.94052 | 22.25317 | 39068 ft | 418 kts | 297° |
| 2026-04-07 17:52 | 45.96267 | 22.17589 | 39068 ft | 417 kts | 297° |
| 2026-04-07 17:53 | 45.98475 | 22.09865 | 39069 ft | 417 kts | 297° |
| 2026-04-07 17:53 | 46.01405 | 21.99575 | 39066 ft | 417 kts | 296° |
| 2026-04-07 17:54 | 46.03603 | 21.91828 | 39066 ft | 417 kts | 296° |
| 2026-04-07 17:54 | 46.05775 | 21.84150 | 39070 ft | 416 kts | 296° |
| 2026-04-07 17:55 | 46.07970 | 21.76364 | 39069 ft | 417 kts | 296° |
| 2026-04-07 17:55 | 46.10147 | 21.68618 | 39066 ft | 416 kts | 296° |
| 2026-04-07 17:56 | 46.12671 | 21.59608 | 39068 ft | 416 kts | 296° |
| 2026-04-07 17:56 | 46.14483 | 21.53118 | 39070 ft | 416 kts | 296° |
| 2026-04-07 17:57 | 46.16626 | 21.45420 | 39075 ft | 416 kts | 296° |
| 2026-04-07 17:57 | 46.18780 | 21.37658 | 39075 ft | 415 kts | 296° |
| 2026-04-07 17:58 | 46.20923 | 21.29910 | 39069 ft | 415 kts | 296° |
| 2026-04-07 17:58 | 46.23063 | 21.22153 | 39072 ft | 415 kts | 296° |
| 2026-04-07 17:59 | 46.25183 | 21.14435 | 39071 ft | 415 kts | 296° |
| 2026-04-07 17:59 | 46.27471 | 21.06788 | 39073 ft | 413 kts | 299° |
| 2026-04-07 18:00 | 46.29916 | 20.99255 | 39070 ft | 414 kts | 299° |
| 2026-04-07 18:00 | 46.32366 | 20.91706 | 39075 ft | 414 kts | 299° |
| 2026-04-07 18:01 | 46.34792 | 20.84210 | 39075 ft | 414 kts | 299° |
| 2026-04-07 18:01 | 46.37228 | 20.76661 | 39079 ft | 413 kts | 299° |
| 2026-04-07 18:02 | 46.39658 | 20.69107 | 39089 ft | 413 kts | 299° |
| 2026-04-07 18:02 | 46.42085 | 20.61540 | 39081 ft | 413 kts | 298° |
| 2026-04-07 18:03 | 46.44503 | 20.53979 | 39093 ft | 412 kts | 298° |
| 2026-04-07 18:03 | 46.46896 | 20.46475 | 39088 ft | 412 kts | 298° |
| 2026-04-07 18:04 | 46.49306 | 20.38896 | 39081 ft | 413 kts | 298° |
| 2026-04-07 18:04 | 46.51709 | 20.31317 | 39092 ft | 413 kts | 298° |
| 2026-04-07 18:05 | 46.54110 | 20.23722 | 39092 ft | 413 kts | 298° |
| 2026-04-07 18:05 | 46.56505 | 20.16121 | 39094 ft | 413 kts | 298° |
| 2026-04-07 18:06 | 46.58880 | 20.08562 | 39097 ft | 413 kts | 298° |
| 2026-04-07 18:06 | 46.61267 | 20.00941 | 39098 ft | 414 kts | 298° |
| 2026-04-07 18:07 | 46.63650 | 19.93313 | 39105 ft | 414 kts | 298° |
| 2026-04-07 18:07 | 46.66026 | 19.85680 | 39104 ft | 414 kts | 298° |
| 2026-04-07 18:08 | 46.68385 | 19.78082 | 39102 ft | 414 kts | 298° |
| 2026-04-07 18:08 | 46.70755 | 19.70427 | 39102 ft | 414 kts | 298° |
| 2026-04-07 18:09 | 46.73120 | 19.62763 | 39104 ft | 414 kts | 298° |
| 2026-04-07 18:09 | 46.75481 | 19.55086 | 39105 ft | 414 kts | 298° |
| 2026-04-07 18:10 | 46.77838 | 19.47402 | 39109 ft | 415 kts | 298° |
| 2026-04-07 18:10 | 46.80176 | 19.39756 | 39109 ft | 415 kts | 297° |
| 2026-04-07 18:11 | 46.82527 | 19.32046 | 39116 ft | 415 kts | 297° |
| 2026-04-07 18:11 | 46.84872 | 19.24329 | 39121 ft | 416 kts | 297° |
| 2026-04-07 18:12 | 46.87219 | 19.16580 | 39123 ft | 416 kts | 297° |
| 2026-04-07 18:12 | 46.89544 | 19.08883 | 39126 ft | 417 kts | 297° |
| 2026-04-07 18:13 | 46.91889 | 19.01097 | 39128 ft | 417 kts | 297° |
| 2026-04-07 18:13 | 46.94228 | 18.93303 | 39130 ft | 418 kts | 297° |
| 2026-04-07 18:14 | 46.96563 | 18.85499 | 39133 ft | 418 kts | 297° |
| 2026-04-07 18:14 | 46.98881 | 18.77728 | 39133 ft | 419 kts | 297° |
| 2026-04-07 18:15 | 47.01211 | 18.69892 | 39136 ft | 419 kts | 297° |
| 2026-04-07 18:15 | 47.03540 | 18.62033 | 39139 ft | 420 kts | 296° |
| 2026-04-07 18:16 | 47.05866 | 18.54159 | 39143 ft | 420 kts | 296° |
| 2026-04-07 18:16 | 47.08189 | 18.46272 | 39143 ft | 421 kts | 296° |
| 2026-04-07 18:17 | 47.10509 | 18.38370 | 39148 ft | 421 kts | 296° |
| 2026-04-07 18:17 | 47.12809 | 18.30507 | 39147 ft | 422 kts | 296° |
| 2026-04-07 18:18 | 47.15126 | 18.22565 | 39153 ft | 422 kts | 296° |
| 2026-04-07 18:18 | 47.17437 | 18.14612 | 39155 ft | 423 kts | 296° |
| 2026-04-07 18:19 | 47.19746 | 18.06645 | 39157 ft | 423 kts | 296° |
| 2026-04-07 18:19 | 47.22036 | 17.98715 | 39159 ft | 424 kts | 296° |
| 2026-04-07 18:20 | 47.24339 | 17.90715 | 39161 ft | 424 kts | 296° |
| 2026-04-07 18:20 | 47.26639 | 17.82700 | 39160 ft | 425 kts | 296° |
| 2026-04-07 18:21 | 47.28939 | 17.74658 | 39159 ft | 425 kts | 296° |
| 2026-04-07 18:21 | 47.31232 | 17.66615 | 39155 ft | 425 kts | 296° |
| 2026-04-07 18:22 | 47.33505 | 17.58612 | 39160 ft | 425 kts | 296° |
| 2026-04-07 18:22 | 47.35787 | 17.50554 | 39159 ft | 425 kts | 296° |
| 2026-04-07 18:23 | 47.38063 | 17.42486 | 39151 ft | 425 kts | 296° |
| 2026-04-07 18:23 | 47.40336 | 17.34406 | 39158 ft | 425 kts | 296° |
| 2026-04-07 18:24 | 47.42587 | 17.26380 | 39164 ft | 425 kts | 296° |
| 2026-04-07 18:24 | 47.44846 | 17.18297 | 39168 ft | 425 kts | 296° |
| 2026-04-07 18:25 | 47.47102 | 17.10198 | 39166 ft | 425 kts | 296° |
| 2026-04-07 18:25 | 47.49349 | 17.02100 | 39174 ft | 425 kts | 296° |
| 2026-04-07 18:26 | 47.51592 | 16.93994 | 39180 ft | 426 kts | 296° |
| 2026-04-07 18:26 | 47.53819 | 16.85921 | 39176 ft | 426 kts | 296° |
| 2026-04-07 18:27 | 47.56055 | 16.77781 | 39178 ft | 426 kts | 296° |
| 2026-04-07 18:27 | 47.58283 | 16.69635 | 39177 ft | 427 kts | 295° |
| 2026-04-07 18:28 | 47.60514 | 16.61443 | 39180 ft | 427 kts | 295° |
| 2026-04-07 18:28 | 47.62734 | 16.53264 | 39181 ft | 428 kts | 295° |
| 2026-04-07 18:29 | 47.64938 | 16.45122 | 39186 ft | 428 kts | 295° |
| 2026-04-07 18:29 | 47.67153 | 16.36908 | 39184 ft | 428 kts | 295° |
| 2026-04-07 18:30 | 47.69361 | 16.28694 | 39181 ft | 428 kts | 295° |
| 2026-04-07 18:30 | 47.71567 | 16.20457 | 39189 ft | 429 kts | 295° |
| 2026-04-07 18:31 | 47.73751 | 16.12273 | 39140 ft | 430 kts | 295° |
| 2026-04-07 18:31 | 47.74853 | 16.08133 | 38886 ft | 429 kts | 295° |
| 2026-04-07 18:31 | 47.75951 | 16.04002 | 38603 ft | 429 kts | 295° |
| 2026-04-07 18:32 | 47.77047 | 15.99870 | 38314 ft | 430 kts | 295° |
| 2026-04-07 18:32 | 47.78145 | 15.95721 | 38032 ft | 431 kts | 295° |
| 2026-04-07 18:32 | 47.79244 | 15.91564 | 37757 ft | 431 kts | 295° |
| 2026-04-07 18:32 | 47.80342 | 15.87402 | 37463 ft | 431 kts | 295° |
| 2026-04-07 18:33 | 47.81437 | 15.83242 | 37205 ft | 433 kts | 295° |
| 2026-04-07 18:33 | 47.82536 | 15.79063 | 36926 ft | 434 kts | 295° |
| 2026-04-07 18:33 | 47.83639 | 15.74861 | 36669 ft | 435 kts | 295° |
| 2026-04-07 18:33 | 47.84724 | 15.70717 | 36419 ft | 436 kts | 295° |
| 2026-04-07 18:34 | 47.85822 | 15.66515 | 36225 ft | 436 kts | 295° |
| 2026-04-07 18:34 | 47.86924 | 15.62294 | 36220 ft | 436 kts | 295° |
| 2026-04-07 18:34 | 47.89125 | 15.53840 | 36214 ft | 437 kts | 295° |
| 2026-04-07 18:35 | 47.91321 | 15.45376 | 36218 ft | 438 kts | 295° |
| 2026-04-07 18:35 | 47.93511 | 15.36897 | 36216 ft | 438 kts | 295° |
| 2026-04-07 18:36 | 47.95697 | 15.28405 | 36227 ft | 438 kts | 295° |
| 2026-04-07 18:36 | 47.97863 | 15.19961 | 36222 ft | 438 kts | 295° |
| 2026-04-07 18:37 | 48.00034 | 15.11461 | 36230 ft | 438 kts | 295° |
| 2026-04-07 18:37 | 48.02203 | 15.02941 | 36226 ft | 438 kts | 295° |
| 2026-04-07 18:38 | 48.04365 | 14.94420 | 36227 ft | 438 kts | 295° |
| 2026-04-07 18:38 | 48.06518 | 14.85898 | 36230 ft | 438 kts | 295° |
| 2026-04-07 18:39 | 48.08653 | 14.77415 | 36231 ft | 438 kts | 295° |
| 2026-04-07 18:39 | 48.10799 | 14.68861 | 36233 ft | 438 kts | 295° |
| 2026-04-07 18:40 | 48.12936 | 14.60305 | 36232 ft | 439 kts | 295° |
| 2026-04-07 18:40 | 48.15071 | 14.51728 | 36235 ft | 439 kts | 295° |
| 2026-04-07 18:41 | 48.17187 | 14.43192 | 36236 ft | 439 kts | 295° |
| 2026-04-07 18:41 | 48.19308 | 14.34608 | 36233 ft | 439 kts | 295° |
| 2026-04-07 18:42 | 48.21422 | 14.26019 | 36231 ft | 439 kts | 295° |
| 2026-04-07 18:42 | 48.23535 | 14.17398 | 36235 ft | 439 kts | 295° |
| 2026-04-07 18:43 | 48.25640 | 14.08777 | 36237 ft | 440 kts | 295° |
| 2026-04-07 18:43 | 48.27740 | 14.00146 | 36235 ft | 440 kts | 295° |
| 2026-04-07 18:44 | 48.29833 | 13.91503 | 36233 ft | 440 kts | 295° |
| 2026-04-07 18:44 | 48.31907 | 13.82912 | 36236 ft | 440 kts | 294° |
| 2026-04-07 18:45 | 48.33990 | 13.74247 | 36250 ft | 440 kts | 294° |
| 2026-04-07 18:45 | 48.36067 | 13.65575 | 36236 ft | 440 kts | 294° |
| 2026-04-07 18:46 | 48.38139 | 13.56886 | 36249 ft | 441 kts | 294° |
| 2026-04-07 18:46 | 48.40192 | 13.48249 | 36246 ft | 441 kts | 294° |
| 2026-04-07 18:47 | 48.42261 | 13.39563 | 36250 ft | 441 kts | 295° |
| 2026-04-07 18:47 | 48.44367 | 13.30886 | 36252 ft | 441 kts | 295° |
| 2026-04-07 18:48 | 48.46474 | 13.22189 | 36253 ft | 441 kts | 295° |
| 2026-04-07 18:48 | 48.48571 | 13.13490 | 36248 ft | 441 kts | 294° |
| 2026-04-07 18:49 | 48.50647 | 13.04844 | 36254 ft | 441 kts | 294° |
| 2026-04-07 18:49 | 48.52731 | 12.96128 | 36255 ft | 441 kts | 294° |
| 2026-04-07 18:50 | 48.54811 | 12.87391 | 36257 ft | 442 kts | 294° |
| 2026-04-07 18:50 | 48.56886 | 12.78643 | 36255 ft | 442 kts | 294° |
| 2026-04-07 18:51 | 48.58952 | 12.69894 | 36256 ft | 442 kts | 294° |
| 2026-04-07 18:51 | 48.61017 | 12.61120 | 36259 ft | 442 kts | 294° |
| 2026-04-07 18:52 | 48.63058 | 12.52406 | 36258 ft | 443 kts | 294° |
| 2026-04-07 18:52 | 48.65111 | 12.43611 | 36258 ft | 443 kts | 294° |
| 2026-04-07 18:53 | 48.67158 | 12.34802 | 36255 ft | 443 kts | 294° |
| 2026-04-07 18:53 | 48.68180 | 12.30392 | 36071 ft | 444 kts | 293° |
| 2026-04-07 18:53 | 48.69203 | 12.25968 | 35809 ft | 444 kts | 293° |
| 2026-04-07 18:54 | 48.70224 | 12.21544 | 35554 ft | 445 kts | 293° |
| 2026-04-07 18:54 | 48.71245 | 12.17111 | 35307 ft | 446 kts | 293° |
| 2026-04-07 18:54 | 48.72252 | 12.12729 | 35063 ft | 447 kts | 293° |
| 2026-04-07 18:54 | 48.73276 | 12.08263 | 34818 ft | 448 kts | 293° |
| 2026-04-07 18:55 | 48.74303 | 12.03777 | 34571 ft | 449 kts | 293° |
| 2026-04-07 18:55 | 48.75327 | 11.99295 | 34339 ft | 450 kts | 293° |
| 2026-04-07 18:55 | 48.76352 | 11.94801 | 34063 ft | 451 kts | 293° |
| 2026-04-07 18:55 | 48.77375 | 11.90301 | 33784 ft | 452 kts | 293° |
| 2026-04-07 18:56 | 48.78400 | 11.85782 | 33516 ft | 453 kts | 293° |
| 2026-04-07 18:56 | 48.79425 | 11.81261 | 33245 ft | 454 kts | 293° |
| 2026-04-07 18:56 | 48.80438 | 11.76777 | 32988 ft | 455 kts | 293° |
| 2026-04-07 18:56 | 48.81468 | 11.72211 | 32721 ft | 456 kts | 293° |
| 2026-04-07 18:57 | 48.82492 | 11.67657 | 32459 ft | 457 kts | 292° |
| 2026-04-07 18:57 | 48.83523 | 11.63064 | 32200 ft | 459 kts | 292° |
| 2026-04-07 18:57 | 48.84556 | 11.58466 | 31933 ft | 459 kts | 294° |
| 2026-04-07 18:57 | 48.85860 | 11.54073 | 31666 ft | 455 kts | 303° |
| 2026-04-07 18:58 | 48.87592 | 11.50063 | 31428 ft | 454 kts | 308° |
| 2026-04-07 18:58 | 48.89446 | 11.46179 | 31166 ft | 450 kts | 309° |
| 2026-04-07 18:58 | 48.91287 | 11.42367 | 30919 ft | 445 kts | 309° |
| 2026-04-07 18:58 | 48.93116 | 11.38572 | 30696 ft | 445 kts | 309° |
| 2026-04-07 18:59 | 48.94944 | 11.34760 | 30447 ft | 446 kts | 309° |
| 2026-04-07 18:59 | 48.96745 | 11.30984 | 30264 ft | 446 kts | 309° |
| 2026-04-07 18:59 | 49.00386 | 11.23308 | 30282 ft | 447 kts | 309° |
| 2026-04-07 19:00 | 49.04026 | 11.15593 | 30103 ft | 448 kts | 309° |
| 2026-04-07 19:00 | 49.05847 | 11.11724 | 29824 ft | 449 kts | 308° |
| 2026-04-07 19:00 | 49.07671 | 11.07844 | 29543 ft | 450 kts | 308° |
| 2026-04-07 19:01 | 49.09496 | 11.03954 | 29264 ft | 451 kts | 308° |
| 2026-04-07 19:01 | 49.11325 | 11.00049 | 28978 ft | 452 kts | 308° |
| 2026-04-07 19:01 | 49.14981 | 10.92225 | 28458 ft | 450 kts | 308° |
| 2026-04-07 19:02 | 49.16797 | 10.88329 | 28177 ft | 449 kts | 308° |
| 2026-04-07 19:02 | 49.18579 | 10.84499 | 27907 ft | 447 kts | 308° |
| 2026-04-07 19:02 | 49.20375 | 10.80638 | 27643 ft | 445 kts | 308° |
| 2026-04-07 19:02 | 49.22168 | 10.76776 | 27375 ft | 444 kts | 308° |
| 2026-04-07 19:03 | 49.23956 | 10.72917 | 27093 ft | 442 kts | 308° |
| 2026-04-07 19:03 | 49.25733 | 10.69079 | 26809 ft | 441 kts | 308° |
| 2026-04-07 19:03 | 49.27498 | 10.65260 | 26432 ft | 438 kts | 308° |
| 2026-04-07 19:03 | 49.29251 | 10.61462 | 26008 ft | 435 kts | 307° |
| 2026-04-07 19:04 | 49.30994 | 10.57681 | 25568 ft | 432 kts | 307° |
| 2026-04-07 19:04 | 49.32718 | 10.53936 | 25121 ft | 428 kts | 307° |
| 2026-04-07 19:04 | 49.34430 | 10.50208 | 24675 ft | 425 kts | 307° |
| 2026-04-07 19:04 | 49.36127 | 10.46510 | 24355 ft | 424 kts | 307° |
| 2026-04-07 19:05 | 49.37805 | 10.42849 | 24289 ft | 426 kts | 307° |
| 2026-04-07 19:05 | 49.39512 | 10.39115 | 24284 ft | 427 kts | 307° |
| 2026-04-07 19:05 | 49.41224 | 10.35367 | 24285 ft | 427 kts | 307° |
| 2026-04-07 19:05 | 49.42931 | 10.31622 | 24282 ft | 428 kts | 307° |
| 2026-04-07 19:06 | 49.44638 | 10.27874 | 24282 ft | 428 kts | 307° |
| 2026-04-07 19:06 | 49.46343 | 10.24123 | 24279 ft | 428 kts | 307° |
| 2026-04-07 19:06 | 49.48049 | 10.20367 | 23947 ft | 427 kts | 307° |
| 2026-04-07 19:06 | 49.49741 | 10.16634 | 23441 ft | 423 kts | 307° |
| 2026-04-07 19:07 | 49.51394 | 10.12980 | 22949 ft | 420 kts | 307° |
| 2026-04-07 19:07 | 49.53060 | 10.09295 | 22458 ft | 417 kts | 307° |
| 2026-04-07 19:07 | 49.54735 | 10.05588 | 21939 ft | 414 kts | 307° |
| 2026-04-07 19:07 | 49.56352 | 10.02002 | 21359 ft | 412 kts | 307° |
| 2026-04-07 19:08 | 49.57987 | 9.98372 | 20655 ft | 411 kts | 307° |
| 2026-04-07 19:08 | 49.59617 | 9.94747 | 19923 ft | 412 kts | 307° |
| 2026-04-07 19:08 | 49.61246 | 9.91120 | 19204 ft | 410 kts | 307° |
| 2026-04-07 19:08 | 49.62868 | 9.87503 | 18480 ft | 408 kts | 307° |
| 2026-04-07 19:09 | 49.64473 | 9.83918 | 17693 ft | 402 kts | 307° |
| 2026-04-07 19:09 | 49.66050 | 9.80389 | 16955 ft | 396 kts | 307° |
| 2026-04-07 19:09 | 49.67605 | 9.76905 | 16244 ft | 391 kts | 307° |
| 2026-04-07 19:09 | 49.69138 | 9.73468 | 15555 ft | 386 kts | 307° |
| 2026-04-07 19:10 | 49.70650 | 9.70072 | 14888 ft | 381 kts | 307° |
| 2026-04-07 19:10 | 49.72142 | 9.66715 | 14239 ft | 376 kts | 307° |
| 2026-04-07 19:10 | 49.73604 | 9.63426 | 13582 ft | 375 kts | 307° |
| 2026-04-07 19:10 | 49.75078 | 9.60108 | 12933 ft | 374 kts | 307° |
| 2026-04-07 19:11 | 49.76556 | 9.56776 | 12265 ft | 375 kts | 307° |
| 2026-04-07 19:11 | 49.78028 | 9.53452 | 11645 ft | 373 kts | 307° |
| 2026-04-07 19:11 | 49.79486 | 9.50151 | 11328 ft | 365 kts | 307° |
| 2026-04-07 19:11 | 49.80919 | 9.46899 | 11311 ft | 365 kts | 307° |
| 2026-04-07 19:12 | 49.82350 | 9.43649 | 11304 ft | 366 kts | 307° |
| 2026-04-07 19:12 | 49.83788 | 9.40382 | 11307 ft | 366 kts | 306° |
| 2026-04-07 19:12 | 49.85167 | 9.37062 | 11301 ft | 367 kts | 302° |
| 2026-04-07 19:12 | 49.86310 | 9.33560 | 11159 ft | 361 kts | 296° |
| 2026-04-07 19:13 | 49.87188 | 9.29955 | 10602 ft | 362 kts | 290° |
| 2026-04-07 19:13 | 49.87911 | 9.26254 | 10331 ft | 353 kts | 288° |
| 2026-04-07 19:13 | 49.88579 | 9.22669 | 10298 ft | 336 kts | 288° |
| 2026-04-07 19:13 | 49.89213 | 9.19271 | 10298 ft | 319 kts | 289° |
| 2026-04-07 19:14 | 49.89819 | 9.16049 | 10279 ft | 303 kts | 289° |
| 2026-04-07 19:14 | 49.90396 | 9.12993 | 10286 ft | 288 kts | 289° |
| 2026-04-07 19:14 | 49.90962 | 9.10015 | 10294 ft | 287 kts | 289° |
| 2026-04-07 19:14 | 49.91533 | 9.07017 | 10300 ft | 287 kts | 289° |
| 2026-04-07 19:15 | 49.92102 | 9.04019 | 10301 ft | 287 kts | 289° |
| 2026-04-07 19:15 | 49.92670 | 9.01043 | 10304 ft | 287 kts | 289° |
| 2026-04-07 19:15 | 49.93231 | 8.98107 | 10304 ft | 288 kts | 289° |
| 2026-04-07 19:15 | 49.93802 | 8.95119 | 10302 ft | 288 kts | 289° |
| 2026-04-07 19:16 | 49.94371 | 8.92140 | 10301 ft | 288 kts | 289° |
| 2026-04-07 19:16 | 49.94939 | 8.89151 | 10297 ft | 288 kts | 289° |
| 2026-04-07 19:16 | 49.95506 | 8.86167 | 10294 ft | 288 kts | 289° |
| 2026-04-07 19:16 | 49.96071 | 8.83187 | 10296 ft | 288 kts | 289° |
| 2026-04-07 19:17 | 49.96638 | 8.80189 | 10296 ft | 288 kts | 289° |
| 2026-04-07 19:17 | 49.97203 | 8.77195 | 10294 ft | 288 kts | 289° |
| 2026-04-07 19:17 | 49.97664 | 8.74146 | 10283 ft | 290 kts | 279° |
| 2026-04-07 19:17 | 49.97725 | 8.70987 | 10292 ft | 294 kts | 268° |
| 2026-04-07 19:18 | 49.97360 | 8.67857 | 10290 ft | 296 kts | 256° |
| 2026-04-07 19:18 | 49.96677 | 8.64819 | 10289 ft | 297 kts | 251° |
| 2026-04-07 19:18 | 49.95939 | 8.61861 | 10286 ft | 298 kts | 251° |
| 2026-04-07 19:18 | 49.95189 | 8.58864 | 10293 ft | 297 kts | 251° |
| 2026-04-07 19:19 | 49.94447 | 8.55852 | 10261 ft | 297 kts | 251° |
| 2026-04-07 19:19 | 49.93726 | 8.52891 | 10041 ft | 289 kts | 251° |
| 2026-04-07 19:19 | 49.93024 | 8.49993 | 9808 ft | 283 kts | 251° |
| 2026-04-07 19:19 | 49.92337 | 8.47148 | 9570 ft | 279 kts | 251° |
| 2026-04-07 19:20 | 49.91658 | 8.44323 | 9197 ft | 279 kts | 251° |
| 2026-04-07 19:20 | 49.90977 | 8.41494 | 8851 ft | 279 kts | 251° |
| 2026-04-07 19:20 | 49.90300 | 8.38686 | 8533 ft | 277 kts | 251° |
| 2026-04-07 19:20 | 49.89625 | 8.35899 | 8296 ft | 274 kts | 251° |
| 2026-04-07 19:21 | 49.88949 | 8.33111 | 8297 ft | 276 kts | 251° |
| 2026-04-07 19:21 | 49.88273 | 8.30322 | 8263 ft | 276 kts | 251° |
| 2026-04-07 19:21 | 49.87609 | 8.27594 | 8032 ft | 273 kts | 251° |
| 2026-04-07 19:21 | 49.86937 | 8.24828 | 7664 ft | 274 kts | 250° |
| 2026-04-07 19:22 | 49.86264 | 8.22062 | 7362 ft | 273 kts | 250° |
| 2026-04-07 19:22 | 49.85598 | 8.19322 | 7042 ft | 271 kts | 250° |
| 2026-04-07 19:22 | 49.84930 | 8.16586 | 6722 ft | 269 kts | 250° |
| 2026-04-07 19:22 | 49.84280 | 8.13922 | 6532 ft | 259 kts | 250° |
| 2026-04-07 19:23 | 49.83656 | 8.11366 | 6393 ft | 250 kts | 250° |
| 2026-04-07 19:23 | 49.83046 | 8.08871 | 6163 ft | 246 kts | 249° |
| 2026-04-07 19:23 | 49.82441 | 8.06399 | 5884 ft | 245 kts | 249° |
| 2026-04-07 19:23 | 49.81837 | 8.03931 | 5602 ft | 244 kts | 249° |
| 2026-04-07 19:24 | 49.81375 | 8.01421 | 5308 ft | 243 kts | 268° |
| 2026-04-07 19:24 | 49.81704 | 7.98924 | 5008 ft | 240 kts | 300° |
| 2026-04-07 19:24 | 49.82816 | 7.97068 | 4682 ft | 237 kts | 332° |
| 2026-04-07 19:24 | 49.84367 | 7.96415 | 4361 ft | 232 kts | 5° |
| 2026-04-07 19:25 | 49.85877 | 7.97150 | 4064 ft | 227 kts | 34° |
| 2026-04-07 19:25 | 49.87118 | 7.98625 | 4009 ft | 225 kts | 41° |
| 2026-04-07 19:25 | 49.88289 | 8.00220 | 4034 ft | 222 kts | 43° |
| 2026-04-07 19:25 | 49.89409 | 8.01876 | 4048 ft | 222 kts | 47° |
| 2026-04-07 19:26 | 49.90419 | 8.03744 | 4020 ft | 221 kts | 55° |
| 2026-04-07 19:26 | 49.91186 | 8.05811 | 4007 ft | 221 kts | 64° |
| 2026-04-07 19:26 | 49.91838 | 8.07979 | 4000 ft | 221 kts | 66° |
| 2026-04-07 19:26 | 49.92447 | 8.10126 | 4003 ft | 220 kts | 67° |
| 2026-04-07 19:27 | 49.93032 | 8.12333 | 4004 ft | 221 kts | 68° |
| 2026-04-07 19:27 | 49.93591 | 8.14558 | 3999 ft | 220 kts | 69° |
| 2026-04-07 19:27 | 49.94131 | 8.16790 | 3998 ft | 220 kts | 70° |
| 2026-04-07 19:27 | 49.94660 | 8.19028 | 3997 ft | 220 kts | 70° |
| 2026-04-07 19:28 | 49.95178 | 8.21249 | 3976 ft | 213 kts | 70° |
| 2026-04-07 19:28 | 49.95659 | 8.23318 | 3947 ft | 192 kts | 70° |
| 2026-04-07 19:28 | 49.96097 | 8.25202 | 3950 ft | 183 kts | 71° |
| 2026-04-07 19:28 | 49.96524 | 8.27038 | 3910 ft | 183 kts | 70° |
| 2026-04-07 19:29 | 49.96963 | 8.28921 | 3675 ft | 181 kts | 71° |
| 2026-04-07 19:29 | 49.97385 | 8.30728 | 3427 ft | 180 kts | 71° |
| 2026-04-07 19:29 | 49.97812 | 8.32550 | 3175 ft | 178 kts | 70° |
| 2026-04-07 19:29 | 49.98236 | 8.34352 | 2929 ft | 176 kts | 70° |
| 2026-04-07 19:30 | 49.98655 | 8.36129 | 2688 ft | 174 kts | 70° |
| 2026-04-07 19:30 | 49.99066 | 8.37873 | 2415 ft | 168 kts | 70° |
| 2026-04-07 19:30 | 49.99462 | 8.39553 | 2181 ft | 158 kts | 69° |
| 2026-04-07 19:30 | 49.99826 | 8.41088 | 1976 ft | 144 kts | 69° |
| 2026-04-07 19:31 | 50.00163 | 8.42512 | 1806 ft | 140 kts | 69° |
| 2026-04-07 19:31 | 50.00501 | 8.43937 | 1640 ft | 140 kts | 69° |
| 2026-04-07 19:31 | 50.00839 | 8.45363 | 1449 ft | 140 kts | 69° |
| 2026-04-07 19:31 | 50.01177 | 8.46789 | 1259 ft | 141 kts | 68° |
| 2026-04-07 19:32 | 50.01515 | 8.48210 | 1072 ft | 143 kts | 68° |
| 2026-04-07 19:32 | 50.01861 | 8.49669 | 868 ft | 144 kts | 68° |
| 2026-04-07 19:32 | 50.02212 | 8.51144 | 672 ft | 144 kts | 68° |
| 2026-04-07 19:32 | 50.02561 | 8.52609 | 465 ft | 144 kts | 66° |
| 2026-04-07 19:33 | 50.02914 | 8.54041 | 346 ft | 128 kts | 71° |
| 2026-04-07 19:33 | 50.03143 | 8.55027 | 356 ft | 69 kts | 69° |
| 2026-04-07 19:33 | 50.03316 | 8.55660 | 359 ft | 49 kts | 57° |
| 2026-04-07 19:33 | 50.03424 | 8.55838 | 361 ft | 0 kts | 41° |
| 2026-04-07 19:34 | 50.03479 | 8.55914 | 362 ft | 19 kts | 41° |
| 2026-04-07 19:34 | 50.03579 | 8.56046 | 364 ft | 18 kts | 40° |
| 2026-04-07 19:35 | 50.03661 | 8.56202 | 365 ft | 19 kts | 62° |
| 2026-04-07 19:35 | 50.03717 | 8.56410 | 365 ft | 22 kts | 70° |
| 2026-04-07 19:35 | 50.03773 | 8.56653 | 363 ft | 25 kts | 70° |
| 2026-04-07 19:35 | 50.03837 | 8.56910 | 365 ft | 27 kts | 69° |
| 2026-04-07 19:36 | 50.03903 | 8.57185 | 371 ft | 27 kts | 69° |
| 2026-04-07 19:36 | 50.03969 | 8.57465 | 376 ft | 28 kts | 70° |
| 2026-04-07 19:36 | 50.04005 | 8.57615 | 377 ft | 0 kts | 70° |
| 2026-04-07 19:36 | 50.04010 | 8.57639 | 379 ft | 6 kts | 69° |
| 2026-04-07 19:37 | 50.04020 | 8.57680 | 377 ft | 0 kts | 69° |
| 2026-04-07 19:37 | 50.04022 | 8.57687 | 378 ft | 2 kts | 69° |
| 2026-04-07 19:37 | 50.04032 | 8.57726 | 374 ft | 5 kts | 69° |
| 2026-04-07 19:37 | 50.04036 | 8.57745 | 379 ft | 0 kts | 69° |
| 2026-04-07 19:39 | 50.04049 | 8.57797 | 376 ft | 17 kts | 69° |
| 2026-04-07 19:39 | 50.04108 | 8.58046 | 379 ft | 26 kts | 69° |
| 2026-04-07 19:39 | 50.04154 | 8.58232 | 381 ft | 4 kts | 53° |
| 2026-04-07 19:39 | 50.04232 | 8.58231 | 379 ft | 11 kts | 343° |
| 2026-04-07 19:40 | 50.04261 | 8.58215 | 378 ft | 0 kts | 340° |
| 2026-04-07 19:40 | 50.04262 | 8.58215 | 378 ft | 0 kts | 340° |
| 2026-04-07 19:41 | 50.04306 | 8.58189 | 377 ft | 14 kts | 339° |
| 2026-04-07 19:41 | 50.04388 | 8.58141 | 379 ft | 23 kts | 340° |
| 2026-04-07 19:41 | 50.04476 | 8.58092 | 375 ft | 0 kts | 340° |
| 2026-04-07 19:42 | 50.04499 | 8.58071 | 378 ft | 14 kts | 321° |
| 2026-04-07 19:43 | 50.04518 | 8.57949 | 373 ft | 20 kts | 259° |
| 2026-04-07 19:43 | 50.04452 | 8.57650 | 376 ft | 24 kts | 251° |
| 2026-04-07 19:43 | 50.04391 | 8.57390 | 371 ft | 27 kts | 250° |
| 2026-04-07 19:43 | 50.04348 | 8.57205 | 373 ft | 27 kts | 250° |
| 2026-04-07 19:44 | 50.04292 | 8.56873 | 374 ft | 20 kts | 300° |
| 2026-04-07 19:44 | 50.04337 | 8.56835 | 370 ft | 0 kts | 359° |
| 2026-04-07 19:45 | 50.04343 | 8.56835 | 372 ft | 0 kts | 359° |
| 2026-04-07 19:45 | 50.04357 | 8.56836 | 374 ft | 9 kts | 3° |
| 2026-04-07 19:45 | 50.04488 | 8.56968 | 368 ft | 21 kts | 68° |
| 2026-04-07 19:45 | 50.04521 | 8.57117 | 368 ft | 22 kts | 71° |
| 2026-04-07 19:46 | 50.04585 | 8.57349 | 372 ft | 10 kts | 31° |
| 2026-04-07 19:46 | 50.04605 | 8.57346 | 370 ft | 1 kts | 323° |
| 2026-04-07 19:46 | 50.04614 | 8.57330 | 372 ft | 7 kts | 309° |
| 2026-04-07 19:46 | 50.04635 | 8.57283 | 368 ft | 2 kts | 303° |
| 2026-04-07 19:47 | 50.04641 | 8.57269 | 369 ft | 0 kts | 302° |